M I D A S
Marine Information and Data Acquisition System
Tripno 462 of the Zeeleeuw from 2003-04-15 06:17:03 to 2003-04-15 13:00:05
Back to CruiseResearch ActivitiesStationsMapUnderway DataData graphs

EquipmentUnitsComment
TimeDGPSUTC
LatitudeDGPSDM.mWGS84
LongitudeDGPSDM.mWGS84
TemperatureSBE03/SBE38deg celciusITS90
ConductivitySBE21S/mITS90
SalinitySBE21 Practical Salinity Units
ChlorophylAChelsea fluorimeterg/lCalibrated in Aceton
Missing or incorrect values are displayed as -999
Sea surface data collected by the RV Zeeleeuw from 2003-04-15 06:17:03 to 2003-04-15 13:00:05
                                                                                    Next 1000 lines
Time Latitude Longitude Temperature Conductivity Salinity ChlorophylA
2003-04-15 06:17:11 51°13.6 2°56.1 15.914021 3.932149 26.253809 -0.444155
2003-04-15 06:17:17 51°13.6 2°56.1 15.915008 3.932255 26.254994 -0.444155
2003-04-15 06:17:21 51°13.6 2°56.1 15.915008 3.932255 26.254994 -0.444155
2003-04-15 06:17:27 51°13.6 2°56.1 15.915609 3.932149 26.254213 -0.444155
2003-04-15 06:17:31 51°13.6 2°56.09 15.891353 3.932149 26.254213 -0.410446
2003-04-15 06:17:37 51°13.6 2°56.09 15.913463 3.932255 26.25459 -0.444155
2003-04-15 06:17:41 51°13.6 2°56.08 15.921446 3.932149 26.253809 -0.410446
2003-04-15 06:17:47 51°13.6 2°56.08 15.923592 3.932149 26.253809 -0.410446
2003-04-15 06:17:53 51°13.61 2°56.07 15.925738 3.93236 26.255372 -0.444155
2003-04-15 06:17:57 51°13.61 2°56.06 15.925738 3.93236 26.255372 -0.444155
2003-04-15 06:18:01 51°13.61 2°56.06 15.927969 3.932887 26.25928 -0.444155
2003-04-15 06:18:07 51°13.61 2°56.05 15.928055 3.932887 26.258876 -0.444155
2003-04-15 06:18:11 51°13.61 2°56.04 15.929686 3.932887 26.258876 -0.444155
2003-04-15 06:18:17 51°13.61 2°56.03 15.930115 3.932887 26.258068 -0.444155
2003-04-15 06:18:21 51°13.62 2°56.02 15.930888 3.932993 26.259254 -0.444155
2003-04-15 06:18:27 51°13.62 2°56.01 15.930888 3.932993 26.259254 -0.444155
2003-04-15 06:18:31 51°13.62 2°56 15.932218 3.933204 26.260413 -0.444155
2003-04-15 06:18:37 51°13.62 2°55.99 15.931617 3.933204 26.260413 -0.410446
2003-04-15 06:18:41 51°13.62 2°55.98 -999 3.933098 26.260035 -0.444155
2003-04-15 06:18:47 51°13.62 2°55.97 -999 3.933098 26.259631 -0.410446
2003-04-15 06:18:51 51°13.63 2°55.96 -999 3.932993 26.260062 -0.477864
2003-04-15 06:18:57 51°13.63 2°55.95 -999 3.932993 26.260062 -0.477864
2003-04-15 06:19:01 51°13.63 2°55.94 -999 3.932887 26.259685 -0.444155
2003-04-15 06:19:07 51°13.63 2°55.93 -999 3.932993 26.261275 -0.444155
2003-04-15 06:19:11 51°13.64 2°55.92 -999 3.932887 26.259685 -0.410446
2003-04-15 06:19:17 51°13.64 2°55.91 -999 3.932887 26.259685 -0.444155
2003-04-15 06:19:21 51°13.64 2°55.9 -999 3.932887 26.25928 -0.410446
2003-04-15 06:19:27 51°13.65 2°55.89 -999 3.932887 26.25928 -0.410446
2003-04-15 06:19:31 51°13.65 2°55.88 -999 3.932782 26.258499 -0.444155
2003-04-15 06:19:37 51°13.65 2°55.87 -999 3.932887 26.258876 -0.410446
2003-04-15 06:19:41 51°13.66 2°55.86 -999 3.933309 26.261599 -0.410446
2003-04-15 06:19:47 51°13.66 2°55.85 -999 3.93352 26.262758 -0.410446
2003-04-15 06:19:51 51°13.66 2°55.85 -999 3.933204 26.259605 -0.444155
2003-04-15 06:19:57 51°13.67 2°55.84 -999 3.933204 26.259605 -0.444155
2003-04-15 06:20:01 51°13.67 2°55.83 -999 3.933204 26.260009 -0.410446
2003-04-15 06:20:07 51°13.67 2°55.82 -999 3.933204 26.260413 -0.444155
2003-04-15 06:20:13 51°13.68 2°55.82 -999 3.932993 26.25885 -0.410446
2003-04-15 06:20:17 51°13.68 2°55.81 -999 3.932993 26.259254 -0.444155
2003-04-15 06:20:21 51°13.68 2°55.81 -999 3.932993 26.259254 -0.444155
2003-04-15 06:20:27 51°13.68 2°55.8 -999 3.932993 26.259658 -0.444155
2003-04-15 06:20:31 51°13.68 2°55.8 -999 3.932887 26.258472 -0.444155
2003-04-15 06:20:37 51°13.68 2°55.8 -999 3.932887 26.258068 -0.444155
2003-04-15 06:20:41 51°13.68 2°55.8 -999 3.932993 26.25885 -0.444155
2003-04-15 06:20:47 51°13.68 2°55.79 -999 3.932887 26.257664 -0.410446
2003-04-15 06:20:51 51°13.69 2°55.79 -999 3.932887 26.257664 -0.410446
2003-04-15 06:20:57 51°13.69 2°55.79 -999 3.932887 26.257664 -0.444155
2003-04-15 06:21:01 51°13.69 2°55.79 -999 3.932782 26.256882 -0.444155
2003-04-15 06:21:07 51°13.69 2°55.79 -999 3.932677 26.255696 -0.444155
2003-04-15 06:21:11 51°13.69 2°55.79 -999 3.932677 26.255696 -0.444155
2003-04-15 06:21:17 51°13.69 2°55.79 -999 3.932677 26.255696 -0.477864
2003-04-15 06:21:23 51°13.69 2°55.79 -999 3.932677 26.2561 -0.444155
2003-04-15 06:21:27 51°13.69 2°55.79 -999 3.932677 26.2561 -0.444155
2003-04-15 06:21:31 51°13.69 2°55.79 -999 3.932677 26.255696 -0.444155
2003-04-15 06:21:37 51°13.69 2°55.79 -999 3.932571 26.254915 -0.444155
2003-04-15 06:21:41 51°13.69 2°55.79 -999 3.932571 26.255319 -0.477864
2003-04-15 06:21:47 51°13.69 2°55.79 -999 3.932677 26.255696 -0.444155
2003-04-15 06:21:51 51°13.69 2°55.79 -999 3.932571 26.254915 -0.444155
2003-04-15 06:21:57 51°13.69 2°55.79 -999 3.932571 26.254915 -0.444155
2003-04-15 06:22:01 51°13.69 2°55.79 -999 3.932466 26.253729 -0.444155
2003-04-15 06:22:07 51°13.69 2°55.79 -999 3.932466 26.253729 -0.444155
2003-04-15 06:22:11 51°13.69 2°55.79 -999 3.937515 25.795804 -0.376736
2003-04-15 06:22:17 51°13.69 2°55.78 -999 3.932466 26.253729 0.230033
2003-04-15 06:22:21 51°13.69 2°55.78 -999 3.953024 26.455486 7.477554
2003-04-15 06:22:27 51°13.69 2°55.78 -999 3.953024 26.455486 7.477554
2003-04-15 06:22:33 51°13.69 2°55.77 -999 3.668979 24.694506 9.702375
2003-04-15 06:22:37 51°13.69 2°55.77 -999 3.582714 25.682224 10.983332
2003-04-15 06:22:41 51°13.69 2°55.77 -999 3.661768 27.767126 15.803777
2003-04-15 06:22:47 51°13.69 2°55.77 -999 3.638079 28.792297 35.220392
2003-04-15 06:22:51 51°13.69 2°55.76 -999 3.638079 28.792297 35.220392
2003-04-15 06:22:57 51°13.69 2°55.76 -999 3.431914 28.056357 33.905725
2003-04-15 06:23:01 51°13.69 2°55.76 -999 3.289632 27.653139 33.804597
2003-04-15 06:23:07 51°13.69 2°55.75 -999 3.140959 26.806379 34.815879
2003-04-15 06:23:11 51°13.69 2°55.75 -999 3.073377 26.586399 36.905862
2003-04-15 06:23:17 51°13.69 2°55.75 -999 3.014116 26.279299 38.625042
2003-04-15 06:23:21 51°13.68 2°55.75 -999 3.014116 26.279299 38.625042
2003-04-15 06:23:27 51°13.68 2°55.75 -999 2.978543 26.162946 39.164392
2003-04-15 06:23:31 51°13.68 2°55.75 -999 2.934342 25.888585 40.479059
2003-04-15 06:23:37 51°13.69 2°55.74 -999 2.976126 26.419161 41.760016
2003-04-15 06:23:41 51°13.69 2°55.74 -999 2.963392 26.371553 42.333076
2003-04-15 06:23:47 51°13.69 2°55.74 -999 2.961183 26.410152 42.67017
2003-04-15 06:23:51 51°13.69 2°55.74 -999 2.961183 26.410152 42.67017
2003-04-15 06:23:57 51°13.69 2°55.74 -999 2.969288 26.552458 42.872426
2003-04-15 06:24:01 51°13.69 2°55.74 -999 2.964868 26.546483 43.479195
2003-04-15 06:24:07 51°13.69 2°55.74 -999 2.963394 26.563656 43.344358
2003-04-15 06:24:11 51°13.69 2°55.74 -999 2.965605 26.611332 43.445486
2003-04-15 06:24:17 51°13.69 2°55.74 -999 2.959501 26.565316 43.849999
2003-04-15 06:24:21 51°13.69 2°55.74 -999 2.959501 26.565316 43.849999
2003-04-15 06:24:27 51°13.7 2°55.74 -999 2.957817 26.564254 43.816289
2003-04-15 06:24:31 51°13.7 2°55.74 -999 2.956554 26.567966 43.951127
2003-04-15 06:24:37 51°13.7 2°55.74 -999 2.952976 26.561356 43.479195
2003-04-15 06:24:41 51°13.7 2°55.74 -999 2.946346 26.511203 43.849999
2003-04-15 06:24:47 51°13.7 2°55.73 -999 2.936453 26.42683 44.018546
2003-04-15 06:24:51 51°13.71 2°55.73 -999 2.938453 26.463487 44.018546
2003-04-15 06:24:57 51°13.71 2°55.73 -999 2.938453 26.463487 44.018546
2003-04-15 06:25:01 51°13.71 2°55.73 -999 2.938664 26.48482 43.715161
2003-04-15 06:25:07 51°13.72 2°55.73 -999 2.940558 26.517508 43.546614
2003-04-15 06:25:11 51°13.72 2°55.72 -999 2.926982 26.39393 43.951127
2003-04-15 06:25:17 51°13.72 2°55.72 -999 2.939612 26.528595 44.119674
2003-04-15 06:25:21 51°13.73 2°55.72 -999 2.941506 26.554702 44.389349
2003-04-15 06:25:27 51°13.73 2°55.71 -999 2.941506 26.554702 44.389349
2003-04-15 06:25:33 51°13.74 2°55.71 -999 2.942453 26.575626 43.917418
2003-04-15 06:25:37 51°13.74 2°55.7 -999 2.942243 26.57474 44.220802
2003-04-15 06:25:41 51°13.75 2°55.7 -999 2.935823 26.513213 44.052255
2003-04-15 06:25:47 51°13.75 2°55.69 -999 2.935718 26.517601 43.715161
2003-04-15 06:25:51 51°13.76 2°55.69 -999 2.932982 26.490345 43.78258
2003-04-15 06:25:57 51°13.77 2°55.68 -999 2.932982 26.490345 43.78258
2003-04-15 06:26:03 51°13.77 2°55.68 -999 2.91709 26.333325 43.681452
2003-04-15 06:26:07 51°13.78 2°55.67 -999 2.91467 26.309834 44.187093
2003-04-15 06:26:11 51°13.78 2°55.67 -999 2.903094 26.190481 43.580324
2003-04-15 06:26:17 51°13.79 2°55.66 -999 2.878995 25.947999 43.040973
2003-04-15 06:26:21 51°13.8 2°55.66 -999 2.874786 25.901475 43.040973
2003-04-15 06:26:27 51°13.81 2°55.65 -999 2.874786 25.901475 43.040973
2003-04-15 06:26:31 51°13.81 2°55.65 -999 2.859844 25.747304 42.569042
2003-04-15 06:26:37 51°13.82 2°55.64 -999 2.844691 25.594721 42.569042
2003-04-15 06:26:41 51°13.83 2°55.64 -999 2.826593 25.406746 42.231947
2003-04-15 06:26:47 51°13.83 2°55.63 -999 2.819228 25.328083 42.164529
2003-04-15 06:26:51 51°13.84 2°55.63 -999 2.812494 25.262619 42.299366
2003-04-15 06:26:57 51°13.85 2°55.62 -999 2.812494 25.262619 42.299366
2003-04-15 06:27:01 51°13.86 2°55.62 -999 2.799027 25.129452 41.321794
2003-04-15 06:27:07 51°13.86 2°55.61 -999 2.791451 25.055725 41.288084
2003-04-15 06:27:11 51°13.87 2°55.6 -999 2.77546 24.896061 40.95099
2003-04-15 06:27:17 51°13.88 2°55.6 -999 2.759258 24.728847 40.108255
2003-04-15 06:27:21 51°13.89 2°55.59 -999 2.759258 24.728847 40.108255
2003-04-15 06:27:27 51°13.9 2°55.58 -999 2.744319 24.567043 40.007127
2003-04-15 06:27:31 51°13.9 2°55.58 -999 2.718546 24.311127 39.804871
2003-04-15 06:27:37 51°13.91 2°55.57 -999 2.708763 24.218768 39.83858
2003-04-15 06:27:43 51°13.93 2°55.56 -999 2.695614 24.092245 39.602614
2003-04-15 06:27:47 51°13.93 2°55.56 -999 2.706869 24.200149 40.074546
2003-04-15 06:27:51 51°13.94 2°55.55 -999 2.706869 24.200149 40.074546
2003-04-15 06:27:57 51°13.95 2°55.55 -999 2.712339 24.257248 39.130683
2003-04-15 06:28:01 51°13.96 2°55.54 -999 2.719598 24.333081 39.332939
2003-04-15 06:28:07 51°13.97 2°55.53 -999 2.724121 24.379821 38.422785
2003-04-15 06:28:11 51°13.98 2°55.53 -999 2.730538 24.451898 38.355366
2003-04-15 06:28:17 51°13.99 2°55.52 -999 2.757996 24.731576 37.816016
2003-04-15 06:28:23 51°14 2°55.51 -999 2.780825 24.967783 38.254238
2003-04-15 06:28:27 51°14.01 2°55.51 -999 2.780825 24.967783 38.254238
2003-04-15 06:28:31 51°14.01 2°55.5 -999 2.789348 25.062865 37.950853
2003-04-15 06:28:37 51°14.02 2°55.49 -999 2.806602 25.236491 38.287947
2003-04-15 06:28:41 51°14.03 2°55.49 -999 2.818913 25.367656 38.355366
2003-04-15 06:28:47 51°14.04 2°55.48 -999 2.828909 25.466743 39.467777
2003-04-15 06:28:53 51°14.05 2°55.47 -999 2.837957 25.558233 39.366648
2003-04-15 06:28:57 51°14.06 2°55.47 -999 2.837957 25.558233 39.366648
2003-04-15 06:29:01 51°14.07 2°55.46 -999 2.853636 25.719098 40.175674
2003-04-15 06:29:07 51°14.08 2°55.45 -999 2.868473 25.874144 40.9847
2003-04-15 06:29:11 51°14.09 2°55.45 -999 2.873734 25.928221 41.760016
2003-04-15 06:29:17 51°14.1 2°55.44 -999 2.883521 26.030298 41.894853
2003-04-15 06:29:23 51°14.11 2°55.43 -999 2.889729 26.092079 41.793725
2003-04-15 06:29:27 51°14.12 2°55.42 -999 2.889729 26.092079 41.793725
2003-04-15 06:29:31 51°14.12 2°55.41 -999 2.884363 26.035111 41.625178
2003-04-15 06:29:37 51°14.14 2°55.41 -999 2.879732 25.978981 41.962272
2003-04-15 06:29:41 51°14.14 2°55.4 -999 2.87184 25.891087 41.625178
2003-04-15 06:29:47 51°14.15 2°55.39 -999 2.861107 25.776845 42.299366
2003-04-15 06:29:51 51°14.16 2°55.38 -999 2.854688 25.709623 41.995982
2003-04-15 06:29:57 51°14.17 2°55.37 -999 2.854688 25.709623 41.995982
2003-04-15 06:30:01 51°14.18 2°55.37 -999 2.8509 25.667947 42.299366
2003-04-15 06:30:07 51°14.19 2°55.35 -999 2.840377 25.56593 41.962272
2003-04-15 06:30:11 51°14.2 2°55.35 -999 2.848269 25.643608 41.389212
2003-04-15 06:30:17 51°14.21 2°55.34 -999 2.849742 25.655882 41.591469
2003-04-15 06:30:21 51°14.22 2°55.33 -999 2.849742 25.655882 41.591469
2003-04-15 06:30:27 51°14.23 2°55.32 -999 2.843429 25.597936 41.153247
2003-04-15 06:30:33 51°14.24 2°55.3 -999 2.84848 25.646279 40.715024
2003-04-15 06:30:37 51°14.24 2°55.29 -999 2.850479 25.673711 40.681315
2003-04-15 06:30:41 51°14.25 2°55.28 -999 1.934645 16.795689 40.9847
2003-04-15 06:30:47 51°14.26 2°55.27 -999 2.864369 25.819228 41.254375
2003-04-15 06:30:51 51°14.26 2°55.26 -999 2.864369 25.819228 41.254375
2003-04-15 06:30:57 51°14.27 2°55.25 -999 2.875944 25.941321 41.288084
2003-04-15 06:31:01 51°14.28 2°55.24 -999 2.882468 26.012115 40.9847
2003-04-15 06:31:07 51°14.29 2°55.22 -999 2.88773 26.066235 41.085828
2003-04-15 06:31:11 51°14.29 2°55.21 -999 2.885941 26.053191 40.613896
2003-04-15 06:31:17 51°14.3 2°55.19 -999 2.886467 26.06021 40.580187
2003-04-15 06:31:21 51°14.31 2°55.18 -999 2.881416 26.013513 40.580187
2003-04-15 06:31:27 51°14.31 2°55.17 -999 2.881416 26.013513 40.580187
2003-04-15 06:31:31 51°14.32 2°55.16 -999 2.875313 25.952794 40.108255
2003-04-15 06:31:37 51°14.33 2°55.14 -999 2.865948 25.860838 39.939708
2003-04-15 06:31:43 51°14.33 2°55.12 -999 2.858371 25.784931 39.467777
2003-04-15 06:31:47 51°14.34 2°55.11 -999 2.849217 25.696893 39.231811
2003-04-15 06:31:51 51°14.34 2°55.1 -999 2.849217 25.696893 39.231811
2003-04-15 06:31:57 51°14.35 2°55.08 -999 2.840694 25.611056 39.130683
2003-04-15 06:32:01 51°14.36 2°55.07 -999 2.835643 25.557986 39.164392
2003-04-15 06:32:07 51°14.36 2°55.05 -999 2.830698 25.510057 39.231811
2003-04-15 06:32:11 51°14.37 2°55.04 -999 2.830803 25.511684 39.467777
2003-04-15 06:32:17 51°14.37 2°55.02 -999 2.829435 25.496361 39.366648
2003-04-15 06:32:21 51°14.38 2°55.01 -999 2.829224 25.493691 39.366648
2003-04-15 06:32:27 51°14.38 2°54.99 -999 2.829224 25.493691 39.366648
2003-04-15 06:32:31 51°14.39 2°54.98 -999 2.834801 25.552543 40.108255
2003-04-15 06:32:37 51°14.39 2°54.96 -999 2.838063 25.586683 39.804871
2003-04-15 06:32:41 51°14.4 2°54.94 -999 2.839957 25.614259 40.276802
2003-04-15 06:32:47 51°14.4 2°54.92 -999 2.842588 25.64625 40.647606
2003-04-15 06:32:53 51°14.41 2°54.9 -999 2.856162 25.781791 41.692597
2003-04-15 06:32:57 51°14.42 2°54.88 -999 2.856162 25.781791 41.692597
2003-04-15 06:33:01 51°14.42 2°54.86 -999 2.869631 25.922893 43.344358
2003-04-15 06:33:07 51°14.43 2°54.84 -999 2.883311 26.064473 44.793862
2003-04-15 06:33:11 51°14.43 2°54.82 -999 2.89636 26.207095 47.490614
2003-04-15 06:33:17 51°14.44 2°54.8 -999 2.912882 26.381601 49.243503
2003-04-15 06:33:21 51°14.45 2°54.78 -999 2.931089 26.573813 50.861554
2003-04-15 06:33:27 51°14.46 2°54.76 -999 2.931089 26.573813 50.861554
2003-04-15 06:33:31 51°14.47 2°54.74 -999 2.948033 26.750022 52.884118
2003-04-15 06:33:37 51°14.48 2°54.72 -999 2.972766 27.010693 53.996529
2003-04-15 06:33:41 51°14.48 2°54.7 -999 2.993712 27.233248 53.423469
2003-04-15 06:33:47 51°14.49 2°54.68 -999 3.019079 27.515818 52.176221
2003-04-15 06:33:51 51°14.5 2°54.66 -999 3.038132 27.724777 50.457042
2003-04-15 06:33:57 51°14.51 2°54.63 -999 3.038132 27.724777 50.457042
2003-04-15 06:34:01 51°14.52 2°54.62 -999 3.064028 28.018693 47.861418
2003-04-15 06:34:07 51°14.53 2°54.59 -999 3.083293 28.236095 45.434341
2003-04-15 06:34:11 51°14.54 2°54.57 -999 3.100769 28.43917 43.007264
2003-04-15 06:34:17 51°14.55 2°54.54 -999 3.118035 28.640637 40.546477
2003-04-15 06:34:21 51°14.55 2°54.52 -999 3.128879 28.771339 39.164392
2003-04-15 06:34:27 51°14.57 2°54.5 -999 3.128879 28.771339 39.164392
2003-04-15 06:34:33 51°14.58 2°54.47 -999 3.143409 28.945148 37.984563
2003-04-15 06:34:37 51°14.58 2°54.45 -999 3.159307 29.124579 37.175537
2003-04-15 06:34:41 51°14.59 2°54.43 -999 3.166151 29.21193 36.804734
2003-04-15 06:34:47 51°14.6 2°54.4 -999 3.177523 29.336149 36.366512
2003-04-15 06:34:51 51°14.61 2°54.38 -999 3.177523 29.336149 36.366512
2003-04-15 06:34:57 51°14.62 2°54.35 -999 3.188368 29.463991 35.827161
2003-04-15 06:35:01 51°14.63 2°54.34 -999 3.197108 29.579402 35.388939
2003-04-15 06:35:07 51°14.64 2°54.31 -999 3.205321 29.678639 34.478785
2003-04-15 06:35:11 51°14.65 2°54.29 -999 3.212377 29.769589 33.602341
2003-04-15 06:35:17 51°14.66 2°54.26 -999 3.215536 29.821379 32.287674
2003-04-15 06:35:21 51°14.67 2°54.24 -999 3.215536 29.821379 32.287674
2003-04-15 06:35:27 51°14.68 2°54.21 -999 3.22038 29.880824 30.939298
2003-04-15 06:35:31 51°14.69 2°54.19 -999 3.222802 29.916825 30.2314
2003-04-15 06:35:37 51°14.7 2°54.16 -999 3.225435 29.953629 29.321247
2003-04-15 06:35:41 51°14.71 2°54.14 -999 3.226909 29.975757 28.57964
2003-04-15 06:35:47 51°14.72 2°54.11 -999 3.229436 30.008729 28.343674
2003-04-15 06:35:51 51°14.73 2°54.09 -999 3.229436 30.008729 28.343674
2003-04-15 06:35:57 51°14.74 2°54.07 -999 3.229647 30.016485 28.040289
2003-04-15 06:36:01 51°14.75 2°54.05 -999 3.231332 30.038715 27.770614
2003-04-15 06:36:07 51°14.76 2°54.02 -999 3.229647 30.029069 27.399811
2003-04-15 06:36:11 51°14.77 2°54 -999 3.233333 30.07191 26.927879
2003-04-15 06:36:17 51°14.78 2°53.97 -999 3.23407 30.086509 26.691913
2003-04-15 06:36:21 51°14.79 2°53.95 -999 3.234702 30.097925 26.422238
2003-04-15 06:36:27 51°14.8 2°53.92 -999 3.234702 30.097925 26.422238
2003-04-15 06:36:31 51°14.81 2°53.9 -999 3.23565 30.114707 25.74805
2003-04-15 06:36:37 51°14.82 2°53.87 -999 3.236703 30.122749 25.781759
2003-04-15 06:36:41 51°14.82 2°53.85 -999 3.231648 30.075583 25.309828
2003-04-15 06:36:47 51°14.84 2°53.82 -999 3.238598 30.146496 25.680631
2003-04-15 06:36:51 51°14.84 2°53.81 -999 3.238703 30.14969 26.085144
2003-04-15 06:36:57 51°14.85 2°53.78 -999 3.238703 30.14969 26.085144
2003-04-15 06:37:01 51°14.86 2°53.76 -999 3.23923 30.152304 27.231264
2003-04-15 06:37:07 51°14.87 2°53.73 -999 3.240072 30.160283 28.00658
2003-04-15 06:37:11 51°14.88 2°53.71 -999 3.241757 30.179055 29.388665
2003-04-15 06:37:17 51°14.89 2°53.68 -999 3.243337 30.196745 29.69205
2003-04-15 06:37:21 51°14.9 2°53.66 -999 3.244285 30.205811 30.130272
2003-04-15 06:37:27 51°14.91 2°53.63 -999 3.244285 30.205811 30.130272
2003-04-15 06:37:31 51°14.92 2°53.61 -999 3.244811 30.211943 30.399947
2003-04-15 06:37:37 51°14.93 2°53.58 -999 3.247023 30.234742 30.501076
2003-04-15 06:37:41 51°14.94 2°53.56 -999 3.246285 30.225028 30.163982
2003-04-15 06:37:47 51°14.95 2°53.53 -999 3.24776 30.238112 30.197691
2003-04-15 06:37:51 51°14.96 2°53.51 -999 3.248391 30.245331 29.456084
2003-04-15 06:37:57 51°14.97 2°53.48 -999 3.248391 30.245331 29.456084
2003-04-15 06:38:01 51°14.98 2°53.46 -999 3.248286 30.245655 28.849315
2003-04-15 06:38:07 51°14.99 2°53.43 -999 3.248602 30.249618 27.939161
2003-04-15 06:38:11 51°15 2°53.42 -999 3.249445 30.258304 27.500939
2003-04-15 06:38:17 51°15.01 2°53.39 -999 3.249339 30.262863 27.264973
2003-04-15 06:38:21 51°15.01 2°53.36 -999 3.248602 30.258083 26.624494
2003-04-15 06:38:27 51°15.02 2°53.33 -999 3.248602 30.258083 26.624494
2003-04-15 06:38:31 51°15.03 2°53.31 -999 3.248076 30.25477 26.388529
2003-04-15 06:38:37 51°15.04 2°53.28 -999 3.248602 30.260906 26.557076
2003-04-15 06:38:43 51°15.05 2°53.25 -999 3.248286 30.261883 26.793042
2003-04-15 06:38:47 51°15.06 2°53.23 -999 3.248181 30.262915 26.86046
2003-04-15 06:38:51 51°15.07 2°53.21 -999 3.248181 30.262915 26.86046
2003-04-15 06:38:57 51°15.08 2°53.18 -999 3.247865 30.263892 26.86046
2003-04-15 06:39:01 51°15.08 2°53.16 -999 3.246918 30.256938 27.332392
2003-04-15 06:39:07 51°15.09 2°53.13 -999 3.246602 30.256502 27.871742
2003-04-15 06:39:11 51°15.1 2°53.11 -999 3.246496 30.256122 27.905452
2003-04-15 06:39:17 51°15.11 2°53.08 -999 3.244706 30.244002 27.972871
2003-04-15 06:39:21 51°15.12 2°53.06 -999 3.244706 30.244002 27.972871
2003-04-15 06:39:27 51°15.13 2°53.03 -999 3.245127 30.249056 27.602067
2003-04-15 06:39:31 51°15.13 2°53.01 -999 3.245127 30.250468 27.500939
2003-04-15 06:39:37 51°15.14 2°52.97 -999 3.245443 30.257261 27.500939
2003-04-15 06:39:41 51°15.15 2°52.95 -999 3.244812 30.252858 28.208836
2003-04-15 06:39:47 51°15.16 2°52.92 -999 3.244812 30.257097 28.748187
2003-04-15 06:39:53 51°15.17 2°52.88 -999 3.240494 30.213936 29.186409
2003-04-15 06:39:57 51°15.18 2°52.86 -999 3.240494 30.213936 29.186409
2003-04-15 06:40:01 51°15.18 2°52.84 -999 3.244812 30.261338 29.456084
2003-04-15 06:40:07 51°15.19 2°52.8 -999 3.243759 30.253997 29.590922
2003-04-15 06:40:11 51°15.2 2°52.78 -999 3.245654 30.272866 29.826888
2003-04-15 06:40:17 51°15.21 2°52.75 -999 3.242179 30.236979 30.26511
2003-04-15 06:40:23 51°15.22 2°52.71 -999 3.245338 30.27031 29.287537
2003-04-15 06:40:27 51°15.23 2°52.69 -999 3.245338 30.27031 29.287537
2003-04-15 06:40:31 51°15.24 2°52.67 -999 3.247023 30.29125 28.613349
2003-04-15 06:40:37 51°15.25 2°52.63 -999 3.24755 30.299521 28.073999
2003-04-15 06:40:41 51°15.25 2°52.61 -999 3.248076 30.303544 27.500939
2003-04-15 06:40:47 51°15.26 2°52.57 -999 3.248497 30.305063 26.422238
2003-04-15 06:40:51 51°15.27 2°52.55 -999 3.248498 30.31002 25.815469
2003-04-15 06:40:57 51°15.28 2°52.51 -999 3.248498 30.31002 25.815469
2003-04-15 06:41:01 51°15.28 2°52.49 -999 3.248182 30.30534 24.905315
2003-04-15 06:41:07 51°15.29 2°52.45 -999 3.250393 30.333858 24.096289
2003-04-15 06:41:11 51°15.29 2°52.43 -999 3.250288 30.333479 23.287264
2003-04-15 06:41:17 51°15.3 2°52.39 -999 3.251341 30.350036 22.242272
2003-04-15 06:41:21 51°15.31 2°52.36 -999 3.24934 30.330065 22.174853
2003-04-15 06:41:27 51°15.31 2°52.33 -999 3.24934 30.330065 22.174853
2003-04-15 06:41:33 51°15.32 2°52.29 -999 3.250499 30.347004 21.702922
2003-04-15 06:41:37 51°15.32 2°52.26 -999 3.251446 30.358222 21.702922
2003-04-15 06:41:41 51°15.32 2°52.24 -999 3.248498 30.328448 21.129862
2003-04-15 06:41:47 51°15.33 2°52.2 -999 3.251552 30.36144 20.961315
2003-04-15 06:41:51 51°15.33 2°52.17 -999 3.250393 30.350173 20.489383
2003-04-15 06:41:57 51°15.34 2°52.13 -999 3.250393 30.350173 20.489383
2003-04-15 06:42:01 51°15.34 2°52.1 -999 3.251552 30.364281 20.051161
2003-04-15 06:42:07 51°15.34 2°52.06 -999 3.246708 30.319867 19.680358
2003-04-15 06:42:11 51°15.34 2°52.04 -999 3.251341 30.367074 19.174717
2003-04-15 06:42:17 51°15.34 2°52 -999 3.249446 30.346051 19.00617
2003-04-15 06:42:21 51°15.34 2°51.97 -999 3.249446 30.346051 19.00617
2003-04-15 06:42:27 51°15.35 2°51.93 -999 3.251657 30.373894 18.466819
2003-04-15 06:42:31 51°15.35 2°51.9 -999 3.252921 30.386255 18.331982
2003-04-15 06:42:37 51°15.35 2°51.86 -999 3.250393 30.362955 18.331982
2003-04-15 06:42:41 51°15.35 2°51.84 -999 3.251657 30.377448 18.062306
2003-04-15 06:42:47 51°15.35 2°51.79 -999 3.251973 30.382138 18.298272
2003-04-15 06:42:51 51°15.35 2°51.77 -999 3.251973 30.382138 18.298272
2003-04-15 06:42:57 51°15.35 2°51.73 -999 3.2525 30.386874 18.230853
2003-04-15 06:43:01 51°15.35 2°51.7 -999 3.252078 30.382516 18.635366
2003-04-15 06:43:07 51°15.35 2°51.66 -999 3.25271 30.391187 18.905042
2003-04-15 06:43:11 51°15.35 2°51.63 -999 3.253342 30.399147 19.478101
2003-04-15 06:43:17 51°15.34 2°51.59 -999 3.251973 30.384982 19.680358
2003-04-15 06:43:23 51°15.34 2°51.55 13.810388 3.248919 30.35836 19.714067
2003-04-15 06:43:27 51°15.34 2°51.52 13.810388 3.248919 30.35836 19.714067
2003-04-15 06:43:31 51°15.34 2°51.49 13.436122 3.253342 30.408398 19.983742
2003-04-15 06:43:37 51°15.34 2°51.45 13.03718 3.2525 30.398967 20.185999
2003-04-15 06:43:41 51°15.34 2°51.43 13.006266 3.251341 30.389112 20.084871
2003-04-15 06:43:47 51°15.34 2°51.39 11.891886 3.251447 30.39376 20.590512
2003-04-15 06:43:51 51°15.34 2°51.36 14.384262 3.248077 30.359591 21.837759
2003-04-15 06:43:57 51°15.34 2°51.32 14.384262 3.248077 30.359591 21.837759
2003-04-15 06:44:01 51°15.34 2°51.29 13.115119 3.249762 30.377031 19.848905
2003-04-15 06:44:07 51°15.33 2°51.25 14.023914 3.2525 30.409645 19.141007
2003-04-15 06:44:11 51°15.33 2°51.22 11.473451 3.252289 30.404616 18.837623
2003-04-15 06:44:17 51°15.33 2°51.18 14.878069 3.252184 30.406374 18.129725
2003-04-15 06:44:21 51°15.33 2°51.15 12.904731 3.248288 30.36746 17.657794
2003-04-15 06:44:27 51°15.33 2°51.11 12.904731 3.248288 30.36746 17.657794
2003-04-15 06:44:33 51°15.33 2°51.07 11.241999 3.249446 30.37874 17.556665
2003-04-15 06:44:37 51°15.33 2°51.04 14.043905 3.251131 30.399031 17.556665
2003-04-15 06:44:41 51°15.32 2°51.02 11.985378 3.251973 30.41274 17.522956
2003-04-15 06:44:47 51°15.32 2°50.98 12.946727 3.24576 30.349827 17.522956
2003-04-15 06:44:51 51°15.32 2°50.95 13.237105 3.251026 30.40435 17.994888
2003-04-15 06:44:57 51°15.31 2°50.91 13.237105 3.251026 30.40435 17.994888
2003-04-15 06:45:03 51°15.31 2°50.87 13.120577 3.245023 30.343617 18.365691
2003-04-15 06:45:07 51°15.31 2°50.84 14.110898 3.251868 30.418775 18.331982
2003-04-15 06:45:11 51°15.3 2°50.81 11.470883 3.251447 30.417263 18.298272
2003-04-15 06:45:17 51°15.3 2°50.77 14.118567 3.248499 30.388144 18.365691
2003-04-15 06:45:21 51°15.3 2°50.74 13.496339 3.249341 30.399008 19.208426
2003-04-15 06:45:27 51°15.29 2°50.7 13.496339 3.249341 30.399008 19.208426
2003-04-15 06:45:31 51°15.29 2°50.68 12.801917 3.249552 30.402615 21.062443
2003-04-15 06:45:37 51°15.29 2°50.64 12.935378 3.248077 30.395891 22.478238
2003-04-15 06:45:43 51°15.28 2°50.6 13.703281 3.246393 30.384843 23.894033
2003-04-15 06:45:47 51°15.28 2°50.57 12.193472 3.245656 30.382904 24.467093
2003-04-15 06:45:51 51°15.28 2°50.54 13.184967 3.247972 30.410486 25.478375
2003-04-15 06:45:57 51°15.27 2°50.5 13.184967 3.247972 30.410486 25.478375
2003-04-15 06:46:01 51°15.27 2°50.47 11.6651 3.251553 30.451182 26.152563
2003-04-15 06:46:07 51°15.27 2°50.43 11.77576 3.251237 30.453621 26.590785
2003-04-15 06:46:13 51°15.26 2°50.39 12.924162 3.245761 30.399683 27.130136
2003-04-15 06:46:17 51°15.26 2°50.37 12.034643 3.245445 30.401401 27.602067
2003-04-15 06:46:21 51°15.26 2°50.34 12.034643 3.245445 30.401401 27.602067
2003-04-15 06:46:27 51°15.25 2°50.3 12.141147 3.244603 30.398372 27.534648
2003-04-15 06:46:31 51°15.25 2°50.27 12.103318 3.247236 30.429257 27.163845
2003-04-15 06:46:37 51°15.25 2°50.23 12.805962 3.245129 30.409546 26.826751
2003-04-15 06:46:43 51°15.24 2°50.19 12.062058 3.244287 30.401518 26.2874
2003-04-15 06:46:47 51°15.24 2°50.16 12.616506 3.242918 30.388028 25.478375
2003-04-15 06:46:53 51°15.24 2°50.12 12.575113 3.247762 30.441154 24.871606
2003-04-15 06:46:57 51°15.24 2°50.09 12.575113 3.247762 30.441154 24.871606
2003-04-15 06:47:01 51°15.23 2°50.07 13.129524 3.24713 30.435311 24.568221
2003-04-15 06:47:07 51°15.23 2°50.03 12.01909 3.248921 30.454607 23.894033
2003-04-15 06:47:11 51°15.23 2°50 11.98201 3.24871 30.453852 23.658067
2003-04-15 06:47:17 51°15.22 2°49.96 12.351334 3.248289 30.453056 22.882751
2003-04-15 06:47:23 51°15.22 2°49.92 12.198009 3.247446 30.445741 22.3434
2003-04-15 06:47:27 51°15.21 2°49.89 12.198009 3.247446 30.445741 22.3434
2003-04-15 06:47:31 51°15.21 2°49.86 13.008955 3.245867 30.432918 22.444529
2003-04-15 06:47:37 51°15.2 2°49.82 13.409712 3.247657 30.451504 21.938888
2003-04-15 06:47:41 51°15.2 2°49.8 13.152109 3.247552 30.453989 21.736631
2003-04-15 06:47:47 51°15.2 2°49.76 12.785103 3.247868 30.456554 21.938888
2003-04-15 06:47:53 51°15.19 2°49.72 12.26665 3.247868 30.45727 22.309691
2003-04-15 06:47:57 51°15.19 2°49.69 12.26665 3.247868 30.45727 22.309691
2003-04-15 06:48:03 51°15.18 2°49.65 12.455162 3.247657 30.458661 23.658067
2003-04-15 06:48:07 51°15.18 2°49.62 11.822034 3.245446 30.436411 25.646922
2003-04-15 06:48:11 51°15.17 2°49.6 12.192202 3.248078 30.466616 27.500939
2003-04-15 06:48:17 51°15.17 2°49.56 11.746217 3.24692 30.456017 30.130272
2003-04-15 06:48:21 51°15.17 2°49.53 11.861255 3.248921 30.475367 33.197828
2003-04-15 06:48:27 51°15.16 2°49.49 11.861255 3.248921 30.475367 33.197828
2003-04-15 06:48:33 51°15.16 2°49.45 11.521954 3.248815 30.474989 35.388939
2003-04-15 06:48:37 51°15.15 2°49.42 11.296972 3.249342 30.481892 36.400221
2003-04-15 06:48:41 51°15.15 2°49.4 11.821806 3.250395 30.493548 36.568768
2003-04-15 06:48:47 51°15.14 2°49.36 12.605145 3.251027 30.498679 37.0407
2003-04-15 06:48:51 51°15.14 2°49.33 11.972634 3.2505 30.493209 36.973281
2003-04-15 06:48:57 51°15.14 2°49.29 11.972634 3.2505 30.493209 36.973281
2003-04-15 06:49:01 51°15.13 2°49.26 13.158414 3.251343 30.501961 37.883435
2003-04-15 06:49:07 51°15.13 2°49.22 11.824087 3.250184 30.490644 38.827298
2003-04-15 06:49:11 51°15.12 2°49.2 12.199415 3.251975 30.508525 39.602614
2003-04-15 06:49:17 51°15.12 2°49.16 12.692956 3.251343 30.503395 40.243093
2003-04-15 06:49:21 51°15.12 2°49.13 12.692956 3.251343 30.503395 40.243093
2003-04-15 06:49:27 51°15.11 2°49.09 12.27091 3.252501 30.513995 40.445349
2003-04-15 06:49:31 51°15.11 2°49.06 11.862896 3.253449 30.525277 40.512768
2003-04-15 06:49:37 51°15.1 2°49.02 12.15817 3.253449 30.523125 39.771161
2003-04-15 06:49:41 51°15.1 2°49 13.305577 3.25387 30.528936 39.164392
2003-04-15 06:49:47 51°15.09 2°48.96 12.8971 3.253238 30.521654 38.962136
2003-04-15 06:49:51 51°15.09 2°48.93 12.8971 3.253238 30.521654 38.962136
2003-04-15 06:49:57 51°15.09 2°48.89 12.602891 3.253765 30.52856 38.658751
2003-04-15 06:50:01 51°15.08 2°48.86 13.192118 3.255976 30.548666 38.625042
2003-04-15 06:50:07 51°15.08 2°48.82 12.344636 3.254291 30.534031 38.422785
2003-04-15 06:50:11 51°15.07 2°48.79 12.00931 3.254713 30.536972 37.377794
2003-04-15 06:50:17 51°15.07 2°48.75 12.274444 3.254713 30.536972 36.46764
2003-04-15 06:50:23 51°15.06 2°48.71 12.787351 3.254607 30.53516 35.456358
2003-04-15 06:50:27 51°15.06 2°48.69 12.787351 3.254607 30.53516 35.456358
2003-04-15 06:50:31 51°15.06 2°48.66 13.737155 3.254291 30.530442 34.883298
2003-04-15 06:50:37 51°15.05 2°48.62 12.897684 3.25387 30.526783 33.838306
2003-04-15 06:50:41 51°15.05 2°48.59 12.456563 3.254923 30.538443 32.961862
2003-04-15 06:50:47 51°15.04 2°48.55 12.71677 3.255134 30.537759 32.321383
2003-04-15 06:50:51 51°15.04 2°48.53 11.785483 3.254081 30.530407 32.220255
2003-04-15 06:50:57 51°15.04 2°48.49 11.785483 3.254081 30.530407 32.220255
2003-04-15 06:51:01 51°15.03 2°48.46 12.607219 3.254081 30.531842 31.95058
2003-04-15 06:51:07 51°15.03 2°48.42 12.270185 3.254291 30.533313 31.815742
2003-04-15 06:51:11 51°15.02 2°48.39 12.273945 3.254502 30.536937 31.647195
2003-04-15 06:51:17 51°15.02 2°48.35 13.743361 3.255134 30.543503 31.512358
2003-04-15 06:51:21 51°15.02 2°48.33 13.301918 3.255555 30.547162 30.83817
2003-04-15 06:51:27 51°15.01 2°48.29 13.301918 3.255555 30.547162 30.83817
2003-04-15 06:51:31 51°15.01 2°48.26 11.729818 3.255134 30.540631 30.399947
2003-04-15 06:51:37 51°15 2°48.22 11.787491 3.255766 30.548632 30.2314
2003-04-15 06:51:41 51°15 2°48.19 12.344364 3.25566 30.548256 30.871879
2003-04-15 06:51:47 51°15 2°48.15 13.810255 3.256924 30.563544 30.433657
2003-04-15 06:51:51 51°14.99 2°48.13 12.568978 3.256819 30.558857 30.298819
2003-04-15 06:51:57 51°14.99 2°48.09 12.568978 3.256819 30.558857 30.298819
2003-04-15 06:52:03 51°14.98 2°48.05 10.770474 3.257135 30.561421 30.096563
2003-04-15 06:52:07 51°14.98 2°48.02 11.548253 3.257767 30.569425 30.130272
2003-04-15 06:52:11 51°14.98 2°47.99 12.791353 3.256608 30.560261 31.208973
2003-04-15 06:52:17 51°14.97 2°47.95 11.976913 3.259452 30.586935 32.624768
2003-04-15 06:52:21 51°14.97 2°47.93 11.568497 3.259978 30.595285 33.905725
2003-04-15 06:52:27 51°14.96 2°47.89 11.568497 3.259978 30.595285 33.905725
2003-04-15 06:52:31 51°14.96 2°47.86 12.130568 3.26219 30.615393 33.838306
2003-04-15 06:52:37 51°14.96 2°47.82 11.417844 3.262505 30.618677 33.63605
2003-04-15 06:52:41 51°14.95 2°47.8 11.039051 3.264085 30.634377 34.242819
2003-04-15 06:52:47 51°14.95 2°47.76 10.885977 3.266086 30.655177 34.883298
2003-04-15 06:52:51 51°14.94 2°47.73 11.109783 3.267139 30.663962 35.961999
2003-04-15 06:52:57 51°14.94 2°47.69 11.109783 3.267139 30.663962 35.961999
2003-04-15 06:53:01 51°14.94 2°47.66 11.748226 3.268824 30.680758 36.164255
2003-04-15 06:53:07 51°14.93 2°47.62 10.577639 3.269245 30.684416 36.737315
2003-04-15 06:53:13 51°14.93 2°47.58 12.490939 3.272931 30.722016 37.512631
2003-04-15 06:53:17 51°14.92 2°47.56 12.081192 3.27272 30.72127 38.287947
2003-04-15 06:53:21 51°14.92 2°47.53 12.081192 3.27272 30.72127 38.287947
2003-04-15 06:53:27 51°14.92 2°47.49 11.635461 3.272826 30.725254 38.018272
2003-04-15 06:53:31 51°14.91 2°47.47 11.97045 3.272931 30.722016 37.58005
2003-04-15 06:53:37 51°14.91 2°47.43 11.666654 3.275037 30.748976 37.108118
2003-04-15 06:53:43 51°14.9 2°47.39 11.396314 3.274511 30.744946 36.973281
2003-04-15 06:53:47 51°14.9 2°47.36 11.39489 3.274932 30.749327 37.546341
2003-04-15 06:53:53 51°14.9 2°47.32 11.692942 3.275143 30.752241 38.018272
2003-04-15 06:53:57 51°14.89 2°47.3 11.692942 3.275143 30.752241 38.018272
2003-04-15 06:54:01 51°14.89 2°47.27 11.911388 3.275669 30.759164 39.029554
2003-04-15 06:54:07 51°14.89 2°47.23 11.687868 3.276828 30.772661 41.321794
2003-04-15 06:54:11 51°14.88 2°47.21 10.398875 3.276512 30.772993 43.310648
2003-04-15 06:54:17 51°14.88 2°47.17 11.684577 3.276828 30.779175 44.591606
2003-04-15 06:54:21 51°14.87 2°47.14 12.020409 3.27746 30.790095 45.636597
2003-04-15 06:54:27 51°14.87 2°47.1 12.020409 3.27746 30.790095 45.636597
2003-04-15 06:54:31 51°14.87 2°47.08 11.003033 3.272826 30.742601 46.074819
2003-04-15 06:54:37 51°14.86 2°47.04 11.904599 3.277986 30.7963 47.15352
2003-04-15 06:54:41 51°14.86 2°47.01 11.942587 3.277144 30.791154 47.793999
2003-04-15 06:54:47 51°14.85 2°46.97 11.713416 3.277881 30.801001 47.895127
2003-04-15 06:54:53 51°14.85 2°46.93 12.015906 3.278092 30.802468 47.861418
2003-04-15 06:54:57 51°14.85 2°46.91 12.015906 3.278092 30.802468 47.861418
2003-04-15 06:55:01 51°14.84 2°46.88 10.998229 3.277986 30.804271 48.198512
2003-04-15 06:55:07 51°14.84 2°46.84 12.60253 3.278829 30.815217 48.670443
2003-04-15 06:55:11 51°14.84 2°46.82 11.596976 3.278724 30.814121 49.614306
2003-04-15 06:55:17 51°14.83 2°46.78 11.595831 3.278934 30.81849 49.917691
2003-04-15 06:55:23 51°14.83 2°46.74 11.709486 3.278618 30.817376 49.681725
2003-04-15 06:55:27 51°14.82 2°46.72 11.709486 3.278618 30.817376 49.681725
2003-04-15 06:55:31 51°14.82 2°46.69 11.405588 3.278934 30.820666 50.119947
2003-04-15 06:55:37 51°14.82 2°46.65 10.838254 3.278618 30.816651 50.457042
2003-04-15 06:55:41 51°14.81 2°46.63 11.627821 3.278934 30.823568 50.693007
2003-04-15 06:55:47 51°14.81 2°46.59 11.964487 3.278829 30.823922 50.55817
2003-04-15 06:55:51 51°14.81 2°46.57 10.984647 3.280093 30.83781 50.895264
2003-04-15 06:55:57 51°14.8 2°46.53 10.984647 3.280093 30.83781 50.895264
2003-04-15 06:56:01 51°14.8 2°46.5 10.830983 3.278408 30.820987 50.726717
2003-04-15 06:56:07 51°14.79 2°46.46 11.470011 3.278724 30.825003 51.569452
2003-04-15 06:56:11 51°14.79 2°46.44 10.751235 3.278934 30.830825 51.805418
2003-04-15 06:56:17 51°14.79 2°46.4 10.598185 3.278408 30.825341 51.771708
2003-04-15 06:56:21 51°14.78 2°46.38 10.635726 3.278618 30.830438 52.041383
2003-04-15 06:56:27 51°14.78 2°46.34 10.635726 3.278618 30.830438 52.041383
2003-04-15 06:56:33 51°14.78 2°46.3 10.480683 3.278408 30.826067 52.8167
2003-04-15 06:56:37 51°14.77 2°46.28 11.275586 3.278197 30.825324 52.749281
2003-04-15 06:56:41 51°14.77 2°46.25 11.798399 3.277881 30.826389 52.344768
2003-04-15 06:56:47 51°14.77 2°46.22 10.590004 3.276618 30.811772 52.681862
2003-04-15 06:56:51 51°14.76 2°46.19 11.081278 3.277144 30.820161 52.951537
2003-04-15 06:56:57 51°14.76 2°46.15 11.081278 3.277144 30.820161 52.951537
2003-04-15 06:57:03 51°14.76 2°46.12 11.3058 3.276196 30.811738 53.490888
2003-04-15 06:57:07 51°14.76 2°46.09 10.848024 3.275986 30.810269 54.030238
2003-04-15 06:57:11 51°14.75 2°46.07 10.618723 3.276618 30.818304 54.198785
2003-04-15 06:57:17 51°14.75 2°46.03 11.562178 3.276618 30.821934 54.299913
2003-04-15 06:57:21 51°14.75 2°46 11.562178 3.276618 30.821934 54.299913
2003-04-15 06:57:27 51°14.75 2°45.96 10.311643 3.276196 30.818997 55.311195
2003-04-15 06:57:31 51°14.74 2°45.94 10.804535 3.276197 30.819723 56.052802
2003-04-15 06:57:37 51°14.74 2°45.9 11.334806 3.276407 30.825549 56.625862
2003-04-15 06:57:41 51°14.74 2°45.88 9.923617 3.275459 30.81785 56.996665
2003-04-15 06:57:47 51°14.73 2°45.84 10.706568 3.276302 30.828084 57.097794
2003-04-15 06:57:53 51°14.73 2°45.8 10.493346 3.276302 30.827357 57.367469
2003-04-15 06:57:57 51°14.73 2°45.77 10.493346 3.276302 30.827357 57.367469
2003-04-15 06:58:01 51°14.73 2°45.75 11.627455 3.275775 30.822595 57.536016
2003-04-15 06:58:07 51°14.72 2°45.71 11.365774 3.276407 30.830635 57.805691
2003-04-15 06:58:13 51°14.72 2°45.67 11.100421 3.275775 30.824775 57.536016
2003-04-15 06:58:17 51°14.72 2°45.65 10.81732 3.275986 30.829877 58.345042
2003-04-15 06:58:23 51°14.71 2°45.61 11.883044 3.276934 30.841939 58.547298
2003-04-15 06:58:27 51°14.71 2°45.58 11.883044 3.276934 30.841939 58.547298
2003-04-15 06:58:31 51°14.7 2°45.55 11.886372 3.27725 30.843779 58.210204
2003-04-15 06:58:37 51°14.7 2°45.51 11.093133 3.274828 30.821433 58.075366
2003-04-15 06:58:41 51°14.7 2°45.49 11.622696 3.276934 30.84412 58.378751
2003-04-15 06:58:47 51°14.69 2°45.45 11.283498 3.276829 30.843022 57.8394
2003-04-15 06:58:51 51°14.69 2°45.42 10.371878 3.27725 30.849596 57.198922
2003-04-15 06:58:57 51°14.68 2°45.38 10.371878 3.27725 30.849596 57.198922
2003-04-15 06:59:03 51°14.68 2°45.34 10.638373 3.277776 30.856542 57.266341
2003-04-15 06:59:07 51°14.68 2°45.32 10.523549 3.276513 30.843363 57.738272
2003-04-15 06:59:11 51°14.67 2°45.29 11.319454 3.276302 30.842621 57.333759
2003-04-15 06:59:17 51°14.67 2°45.25 10.17894 3.276934 30.850666 57.367469
2003-04-15 06:59:21 51°14.66 2°45.22 11.242643 3.276513 30.847727 56.659571
2003-04-15 06:59:27 51°14.66 2°45.18 11.242643 3.276513 30.847727 56.659571
2003-04-15 06:59:33 51°14.65 2°45.14 11.316696 3.276829 30.85175 56.457315
2003-04-15 06:59:37 51°14.65 2°45.12 10.935146 3.277566 30.856528 56.120221
2003-04-15 06:59:41 51°14.65 2°45.09 11.049345 3.276302 30.844076 55.176358
2003-04-15 06:59:47 51°14.64 2°45.05 10.249297 3.276618 30.851008 54.637007
2003-04-15 06:59:51 51°14.64 2°45.02 11.161779 3.276723 30.851379 54.266204
2003-04-15 06:59:57 51°14.63 2°44.98 11.161779 3.276723 30.851379 54.266204
2003-04-15 07:00:03 51°14.63 2°44.94 10.932557 3.276618 30.850281 54.198785
2003-04-15 07:00:07 51°14.63 2°44.92 11.122509 3.276618 30.851736 55.783127
2003-04-15 07:00:11 51°14.62 2°44.89 12.061467 3.276302 30.847713 56.861828
2003-04-15 07:00:17 51°14.62 2°44.85 11.874703 3.277987 30.867472 57.87311
2003-04-15 07:00:21 51°14.61 2°44.82 10.670924 3.278514 30.874422 59.120358
2003-04-15 07:00:27 51°14.61 2°44.78 10.670924 3.278514 30.874422 59.120358
2003-04-15 07:00:31 51°14.61 2°44.76 10.405494 3.279251 30.880656 60.536153
2003-04-15 07:00:37 51°14.6 2°44.72 10.368194 3.279672 30.886508 60.772118
2003-04-15 07:00:43 51°14.6 2°44.68 11.394431 3.280199 30.89273 60.7047
2003-04-15 07:00:47 51°14.59 2°44.65 11.433815 3.278514 30.87515 59.760836
2003-04-15 07:00:51 51°14.59 2°44.62 11.433815 3.278514 30.87515 59.760836
2003-04-15 07:00:57 51°14.58 2°44.58 10.715198 3.279567 30.886137 60.401315
2003-04-15 07:01:01 51°14.58 2°44.56 10.259389 3.279777 30.889063 62.491298
2003-04-15 07:01:07 51°14.58 2°44.52 10.563923 3.280304 30.893829 64.682409
2003-04-15 07:01:13 51°14.57 2°44.47 10.030452 3.2822 30.91215 64.716118
2003-04-15 07:01:17 51°14.57 2°44.45 11.287315 3.28062 30.893482 63.401452
2003-04-15 07:01:23 51°14.56 2°44.41 10.301 3.283042 30.918753 61.951947
2003-04-15 07:01:27 51°14.56 2°44.38 10.301 3.283042 30.918753 61.951947
2003-04-15 07:01:31 51°14.56 2°44.35 10.834596 3.282937 30.916925 61.7834
2003-04-15 07:01:37 51°14.55 2°44.31 12.076329 3.282726 30.913998 62.525007
2003-04-15 07:01:41 51°14.55 2°44.29 11.886827 3.28399 30.925725 62.760973
2003-04-15 07:01:47 51°14.54 2°44.25 10.950218 3.282621 30.910712 63.266614
2003-04-15 07:01:53 51°14.54 2°44.21 10.531226 3.284095 30.926094 63.603708
2003-04-15 07:01:57 51°14.53 2°44.18 10.531226 3.284095 30.926094 63.603708
2003-04-15 07:02:01 51°14.53 2°44.15 11.291362 3.283569 30.9206 62.423879
2003-04-15 07:02:07 51°14.53 2°44.11 11.291454 3.284938 30.934155 61.951947
2003-04-15 07:02:11 51°14.52 2°44.09 11.292374 3.286728 30.951374 61.547435
2003-04-15 07:02:17 51°14.52 2°44.05 10.381345 3.287465 30.958336 61.008084
2003-04-15 07:02:23 51°14.51 2°44.01 10.111785 3.286833 30.952473 60.772118
2003-04-15 07:02:27 51°14.51 2°43.98 10.111785 3.286833 30.952473 60.772118
2003-04-15 07:02:31 51°14.5 2°43.95 9.80419 3.288413 30.968225 59.052939
2003-04-15 07:02:37 51°14.5 2°43.91 11.142793 3.287149 30.95358 57.434888
2003-04-15 07:02:41 51°14.5 2°43.88 10.647012 3.292942 31.014018 55.985383
2003-04-15 07:02:47 51°14.49 2°43.84 9.844494 3.287992 30.96237 55.378614
2003-04-15 07:02:51 51°14.49 2°43.82 10.116795 3.286939 30.950653 54.131366
2003-04-15 07:02:57 51°14.48 2°43.78 10.116795 3.286939 30.950653 54.131366
2003-04-15 07:03:01 51°14.48 2°43.75 11.103695 3.288308 30.966396 53.760563
2003-04-15 07:03:07 51°14.47 2°43.71 11.554345 3.286623 30.943709 52.547024
2003-04-15 07:03:11 51°14.47 2°43.68 11.140811 3.289361 30.974463 53.254922
2003-04-15 07:03:17 51°14.47 2°43.64 10.912393 3.288097 30.961279 52.20993
2003-04-15 07:03:21 51°14.46 2°43.62 10.035702 3.288202 30.962377 51.434614
2003-04-15 07:03:27 51°14.46 2°43.58 10.035702 3.288202 30.962377 51.434614
2003-04-15 07:03:33 51°14.45 2°43.53 10.722666 3.291046 30.993506 51.704289
2003-04-15 07:03:37 51°14.45 2°43.51 11.32782 3.289466 30.972641 51.603161
2003-04-15 07:03:41 51°14.44 2°43.48 11.514621 3.289887 30.981418 50.254785
2003-04-15 07:03:47 51°14.44 2°43.44 10.684339 3.289887 30.981418 50.119947
2003-04-15 07:03:51 51°14.44 2°43.41 10.643854 3.286623 30.946627 49.108665
2003-04-15 07:03:57 51°14.43 2°43.37 10.643854 3.286623 30.946627 49.108665
2003-04-15 07:04:01 51°14.43 2°43.35 11.021968 3.289256 30.974095 48.131093
2003-04-15 07:04:07 51°14.42 2°43.31 11.882771 3.286623 30.947357 47.793999
2003-04-15 07:04:11 51°14.42 2°43.28 11.545367 3.287676 30.958344 47.389486
2003-04-15 07:04:17 51°14.41 2°43.24 11.168967 3.288413 30.968956 47.625452
2003-04-15 07:04:21 51°14.41 2°43.21 10.599858 3.288202 30.966028 46.917554
2003-04-15 07:04:27 51°14.4 2°43.17 10.599858 3.288202 30.966028 46.917554
2003-04-15 07:04:31 51°14.4 2°43.14 9.9508 3.289045 30.974819 46.749007
2003-04-15 07:04:37 51°14.4 2°43.1 10.104106 3.289782 30.983241 46.479332
2003-04-15 07:04:41 51°14.39 2°43.08 11.582143 3.287992 30.9631 45.939982
2003-04-15 07:04:47 51°14.39 2°43.04 10.100266 3.287571 30.960165 45.434341
2003-04-15 07:04:53 51°14.38 2°43 10.290307 3.287044 30.959781 45.198375
2003-04-15 07:04:57 51°14.37 2°42.97 10.290307 3.287044 30.959781 45.198375
2003-04-15 07:05:01 51°14.37 2°42.94 10.861541 3.285043 30.937442 44.962409
2003-04-15 07:05:07 51°14.36 2°42.9 11.289246 3.28399 30.929372 44.726443
2003-04-15 07:05:11 51°14.36 2°42.88 9.753363 3.286517 30.955016 44.524187
2003-04-15 07:05:17 51°14.35 2°42.84 10.291521 3.287044 30.961972 44.254512
2003-04-15 07:05:23 51°14.34 2°42.8 11.162747 3.286833 30.960504 44.35564
2003-04-15 07:05:27 51°14.33 2°42.77 11.162747 3.286833 30.960504 44.35564
2003-04-15 07:05:31 51°14.33 2°42.75 11.315179 3.285991 30.953171 43.445486
2003-04-15 07:05:37 51°14.32 2°42.71 10.937319 3.286623 30.959766 42.299366
2003-04-15 07:05:41 51°14.31 2°42.68 11.27646 3.284306 30.937046 41.389212
2003-04-15 07:05:47 51°14.31 2°42.64 10.172859 3.284622 30.940343 40.41164
2003-04-15 07:05:51 51°14.3 2°42.61 9.980223 3.285359 30.948037 40.175674
2003-04-15 07:05:57 51°14.29 2°42.57 9.980223 3.285359 30.948037 40.175674
2003-04-15 07:06:03 51°14.28 2°42.54 10.515127 3.286307 30.956469 39.703742
2003-04-15 07:06:07 51°14.28 2°42.51 10.015729 3.286623 30.961227 39.26552
2003-04-15 07:06:11 51°14.27 2°42.48 11.946822 3.283463 30.928984 38.793589
2003-04-15 07:06:17 51°14.26 2°42.44 11.422847 3.28578 30.953164 38.69246
2003-04-15 07:06:21 51°14.26 2°42.42 9.822393 3.285464 30.950596 38.793589
2003-04-15 07:06:27 51°14.25 2°42.38 9.822393 3.285464 30.950596 38.793589
2003-04-15 07:06:33 51°14.24 2°42.34 11.5701 3.284622 30.942533 38.928426
2003-04-15 07:06:37 51°14.23 2°42.31 10.661871 3.284517 30.942894 38.355366
2003-04-15 07:06:41 51°14.23 2°42.29 10.626761 3.287571 30.974042 37.445212
2003-04-15 07:06:47 51°14.22 2°42.25 11.531485 3.286518 30.965241 37.647469
2003-04-15 07:06:51 51°14.21 2°42.22 10.624298 3.287255 30.975129 38.1194
2003-04-15 07:06:57 51°14.21 2°42.18 10.624298 3.287255 30.975129 38.1194
2003-04-15 07:07:03 51°14.2 2°42.14 10.585867 3.285149 30.95095 38.658751
2003-04-15 07:07:07 51°14.19 2°42.12 11.118406 3.287992 30.981363 38.321657
2003-04-15 07:07:11 51°14.19 2°42.09 10.321632 3.287044 30.971468 38.085691
2003-04-15 07:07:17 51°14.18 2°42.05 11.005204 3.285886 30.960836 38.422785
2003-04-15 07:07:21 51°14.17 2°42.02 10.168415 3.286518 30.968163 38.321657
2003-04-15 07:07:27 51°14.16 2°41.98 10.168415 3.286518 30.968163 38.321657
2003-04-15 07:07:31 51°14.16 2°41.96 10.511358 3.288308 30.987586 38.557623
2003-04-15 07:07:37 51°14.15 2°41.92 11.157079 3.288308 30.986855 38.490204
2003-04-15 07:07:43 51°14.14 2°41.88 11.609746 3.286096 30.963766 38.321657
2003-04-15 07:07:47 51°14.14 2°41.85 11.610936 3.287571 30.979158 38.287947
2003-04-15 07:07:51 51°14.13 2°41.83 9.902671 3.286096 30.963766 38.220529
2003-04-15 07:07:57 51°14.12 2°41.79 9.902671 3.286096 30.963766 38.220529
2003-04-15 07:08:01 51°14.12 2°41.76 10.744789 3.286096 30.962304 37.849725
2003-04-15 07:08:07 51°14.11 2°41.72 10.402977 3.288624 30.989422 37.849725
2003-04-15 07:08:13 51°14.1 2°41.68 10.93681 3.289256 30.99602 37.242956
2003-04-15 07:08:17 51°14.09 2°41.66 9.368099 3.288413 30.987223 37.108118
2003-04-15 07:08:21 51°14.09 2°41.63 9.368099 3.288413 30.987223 37.108118
2003-04-15 07:08:27 51°14.08 2°41.59 11.318351 3.288835 30.99089 37.647469
2003-04-15 07:08:31 51°14.08 2°41.56 9.524246 3.28894 30.990527 37.849725
2003-04-15 07:08:37 51°14.07 2°41.53 11.811267 3.289256 30.993826 37.917144
2003-04-15 07:08:43 51°14.06 2°41.49 9.065809 3.290309 31.001895 38.490204
2003-04-15 07:08:47 51°14.06 2°41.47 11.700483 3.290625 31.003731 39.164392
2003-04-15 07:08:53 51°14.05 2°41.44 12.080737 3.291362 31.010695 39.366648
2003-04-15 07:08:57 51°14.05 2°41.42 12.080737 3.291362 31.010695 39.366648
2003-04-15 07:09:01 51°14.05 2°41.4 9.462276 3.29073 31.003367 39.905999
2003-04-15 07:09:07 51°14.05 2°41.38 11.596747 3.291889 31.016192 40.310512
2003-04-15 07:09:11 51°14.05 2°41.36 9.735706 3.292099 31.014002 40.715024
2003-04-15 07:09:17 51°14.05 2°41.34 11.188776 3.29231 31.014006 40.917281
2003-04-15 07:09:21 51°14.05 2°41.33 11.034527 3.29252 31.014741 41.557759
2003-04-15 07:09:27 51°14.06 2°41.31 11.034527 3.29252 31.014741 41.557759
2003-04-15 07:09:31 51°14.06 2°41.3 9.232983 3.292731 31.012551 41.456631
2003-04-15 07:09:37 51°14.07 2°41.29 11.657554 3.293573 31.018418 41.321794
2003-04-15 07:09:41 51°14.07 2°41.28 10.842329 3.293784 31.018422 41.052118
2003-04-15 07:09:47 51°14.08 2°41.27 10.990838 3.294205 31.020624 42.198238
2003-04-15 07:09:53 51°14.08 2°41.27 10.377008 3.293995 31.017695 42.434204
2003-04-15 07:09:57 51°14.09 2°41.26 10.377008 3.293995 31.017695 42.434204
2003-04-15 07:10:03 51°14.09 2°41.26 10.942867 3.294311 31.021723 42.602751
2003-04-15 07:10:07 51°14.1 2°41.25 10.711022 3.295258 31.032345 43.445486
2003-04-15 07:10:11 51°14.1 2°41.25 11.802369 3.294311 31.023186 43.78258
2003-04-15 07:10:17 51°14.11 2°41.25 11.872789 3.28915 30.969345 45.198375
2003-04-15 07:10:23 51°14.12 2°41.25 9.785135 3.29568 31.040399 46.58046
2003-04-15 07:10:27 51°14.12 2°41.25 9.785135 3.29568 31.040399 46.58046
2003-04-15 07:10:33 51°14.13 2°41.25 9.084315 3.294837 31.033802 47.591742
2003-04-15 07:10:37 51°14.13 2°41.25 11.416467 3.293784 31.025737 48.636734
2003-04-15 07:10:41 51°14.13 2°41.25 9.663661 3.294311 31.03782 49.749144
2003-04-15 07:10:47 51°14.14 2°41.25 11.336322 3.293679 31.031956 49.749144
2003-04-15 07:10:51 51°14.14 2°41.25 10.463594 3.294732 31.045147 50.153657
2003-04-15 07:10:57 51°14.15 2°41.25 10.463594 3.294732 31.045147 50.153657
2003-04-15 07:11:01 51°14.15 2°41.25 9.696513 3.293363 31.033781 51.502033
2003-04-15 07:11:07 51°14.15 2°41.25 10.803238 3.293679 31.040742 52.311059
2003-04-15 07:11:13 51°14.15 2°41.25 11.480651 3.29389 31.046604 52.378477
2003-04-15 07:11:17 51°14.15 2°41.25 9.538371 3.292731 31.03597 52.344768
2003-04-15 07:11:21 51°14.15 2°41.25 11.520945 3.293468 31.044402 52.445896
2003-04-15 07:11:27 51°14.15 2°41.25 11.520945 3.293468 31.044402 52.445896
2003-04-15 07:11:33 51°14.15 2°41.25 9.578414 3.292837 31.036338 52.479606
2003-04-15 07:11:37 51°14.15 2°41.25 9.072707 3.294943 31.059069 53.625725
2003-04-15 07:11:43 51°14.15 2°41.25 10.992917 3.292836 31.034873 53.861691
2003-04-15 07:11:47 51°14.15 2°41.25 10.688795 3.2941 31.053934 54.872973
2003-04-15 07:11:51 51°14.15 2°41.25 11.443038 3.293468 31.047333 55.749418
2003-04-15 07:11:57 51°14.15 2°41.25 11.443038 3.293468 31.047333 55.749418
2003-04-15 07:12:03 51°14.15 2°41.25 11.593268 3.293153 31.044766 55.816836
2003-04-15 07:12:07 51°14.15 2°41.25 9.770875 3.293468 31.049532 56.322477
2003-04-15 07:12:11 51°14.15 2°41.25 11.593863 3.293468 31.051731 56.929247
2003-04-15 07:12:17 51°14.15 2°41.25 9.382684 3.293153 31.046964 57.434888
2003-04-15 07:12:23 51°14.15 2°41.25 11.968492 3.293047 31.048796 57.468597
2003-04-15 07:12:27 51°14.15 2°41.25 11.968492 3.293047 31.048796 57.468597
2003-04-15 07:12:31 51°14.15 2°41.25 11.144636 3.293047 31.048796 57.704563
2003-04-15 07:12:37 51°14.15 2°41.25 11.126612 3.293047 31.050262 57.468597
2003-04-15 07:12:41 51°14.15 2°41.25 9.388744 3.292626 31.04586 57.064084
2003-04-15 07:12:47 51°14.15 2°41.25 10.958954 3.293047 31.050262 57.131503
2003-04-15 07:12:53 51°14.15 2°41.25 11.526857 3.292731 31.046228 56.288768
2003-04-15 07:12:57 51°14.15 2°41.25 11.526857 3.292731 31.046228 56.288768
2003-04-15 07:13:01 51°14.15 2°41.25 11.220733 3.29389 31.059064 56.221349
2003-04-15 07:13:07 51°14.15 2°41.25 10.463827 3.292626 31.042929 55.547161
2003-04-15 07:13:13 51°14.15 2°41.25 11.603475 3.293258 31.048064 55.344905
2003-04-15 07:13:17 51°14.15 2°41.26 10.996012 3.293363 31.048432 55.479742
2003-04-15 07:13:23 51°14.15 2°41.26 10.92021 3.293679 31.050266 55.985383
2003-04-15 07:13:27 51°14.15 2°41.26 10.92021 3.293679 31.050266 55.985383
2003-04-15 07:13:33 51°14.15 2°41.26 11.222851 3.293468 31.048799 55.816836
2003-04-15 07:13:37 51°14.15 2°41.26 11.560437 3.293363 31.049164 55.547161
2003-04-15 07:13:41 51°14.15 2°41.26 10.994118 3.293468 31.048799 55.749418
2003-04-15 07:13:47 51°14.15 2°41.26 10.877 3.293258 31.047331 55.513452
2003-04-15 07:13:51 51°14.14 2°41.26 11.669123 3.293258 31.046599 55.311195
2003-04-15 07:13:57 51°14.14 2°41.27 11.669123 3.293258 31.046599 55.311195
2003-04-15 07:14:03 51°14.14 2°41.27 11.932022 3.293363 31.049164 55.176358
2003-04-15 07:14:07 51°14.14 2°41.27 11.408388 3.292099 31.038161 55.749418
2003-04-15 07:14:11 51°14.14 2°41.27 9.886605 3.293047 31.046597 55.479742
2003-04-15 07:14:17 51°14.14 2°41.27 9.772757 3.293153 31.049896 55.648289
2003-04-15 07:14:21 51°14.14 2°41.27 10.500933 3.293047 31.050995 55.513452
2003-04-15 07:14:27 51°14.14 2°41.28 10.500933 3.293047 31.050995 55.513452
2003-04-15 07:14:33 51°14.14 2°41.28 11.786715 3.292837 31.05026 55.108939
2003-04-15 07:14:37 51°14.14 2°41.28 9.465303 3.293258 31.055395 55.07523
2003-04-15 07:14:43 51°14.14 2°41.28 11.447947 3.292731 31.047694 54.299913
2003-04-15 07:14:47 51°14.14 2°41.28 11.596243 3.292837 31.047328 52.884118
2003-04-15 07:14:51 51°14.14 2°41.28 11.447076 3.293153 31.052095 52.108802
2003-04-15 07:14:57 51°14.14 2°41.29 11.447076 3.293153 31.052095 52.108802
2003-04-15 07:15:01 51°14.14 2°41.29 10.268451 3.293363 31.051363 52.311059
2003-04-15 07:15:07 51°14.14 2°41.29 9.187644 3.293153 31.049896 52.850409
2003-04-15 07:15:13 51°14.14 2°41.29 11.558193 3.293153 31.049896 53.120084
2003-04-15 07:15:17 51°14.14 2°41.29 9.072279 3.292942 31.047695 52.951537
2003-04-15 07:15:21 51°14.14 2°41.3 9.962815 3.292837 31.048061 52.749281
2003-04-15 07:15:27 51°14.14 2°41.3 9.962815 3.292837 31.048061 52.749281
2003-04-15 07:15:31 51°14.14 2°41.3 12.376989 3.292942 31.049161 52.715571
2003-04-15 07:15:37 51°14.14 2°41.3 10.839967 3.292942 31.048428 53.153794
2003-04-15 07:15:43 51°14.14 2°41.3 11.063514 3.292731 31.048427 52.715571
2003-04-15 07:15:47 51°14.14 2°41.31 9.460574 3.292837 31.049527 51.973965
2003-04-15 07:15:53 51°14.14 2°41.31 11.745531 3.292521 31.046226 51.940255
2003-04-15 07:15:57 51°14.14 2°41.31 11.745531 3.292521 31.046226 51.940255
2003-04-15 07:16:01 51°14.14 2°41.31 10.691997 3.292415 31.045126 52.917828
2003-04-15 07:16:07 51°14.14 2°41.31 9.8499 3.292626 31.048793 53.322341
2003-04-15 07:16:11 51°14.14 2°41.32 11.671364 3.292837 31.049527 53.120084
2003-04-15 07:16:17 51°14.14 2°41.32 10.991162 3.292205 31.044391 52.041383
2003-04-15 07:16:21 51°14.14 2°41.32 11.706242 3.293469 31.054663 51.333486
2003-04-15 07:16:27 51°14.14 2°41.32 11.706242 3.293469 31.054663 51.333486
2003-04-15 07:16:31 51°14.14 2°41.32 11.333151 3.293363 31.053563 51.839127
2003-04-15 07:16:37 51°14.14 2°41.33 11.82436 3.292521 31.042562 52.547024
2003-04-15 07:16:41 51°14.14 2°41.33 9.885524 3.293679 31.051732 52.850409
2003-04-15 07:16:47 51°14.14 2°41.33 10.193532 3.292837 31.048061 53.524597
2003-04-15 07:16:53 51°14.13 2°41.33 11.855692 3.292626 31.046593 53.524597
2003-04-15 07:16:57 51°14.13 2°41.34 11.855692 3.292626 31.046593 53.524597
2003-04-15 07:17:01 51°14.13 2°41.34 11.515996 3.292837 31.048794 52.917828
2003-04-15 07:17:07 51°14.13 2°41.34 11.967172 3.292521 31.043294 53.35605
2003-04-15 07:17:11 51°14.13 2°41.34 11.664322 3.292731 31.046228 53.457178
2003-04-15 07:17:17 51°14.13 2°41.35 10.228221 3.292837 31.048794 53.389759
2003-04-15 07:17:23 51°14.13 2°41.35 11.776855 3.293469 31.05393 53.827982
2003-04-15 07:17:27 51°14.13 2°41.35 11.776855 3.293469 31.05393 53.827982
2003-04-15 07:17:31 51°14.13 2°41.35 9.611498 3.292731 31.045495 53.8954
2003-04-15 07:17:37 51°14.13 2°41.36 11.743248 3.292626 31.043662 53.996529
2003-04-15 07:17:41 51°14.13 2°41.36 12.004852 3.292942 31.050627 54.367332
2003-04-15 07:17:47 51°14.13 2°41.36 11.817198 3.292521 31.046959 54.131366
2003-04-15 07:17:51 51°14.13 2°41.36 11.103419 3.293258 31.052462 53.659435
2003-04-15 07:17:57 51°14.12 2°41.37 11.103419 3.293258 31.052462 53.659435
2003-04-15 07:18:01 51°14.12 2°41.37 11.482301 3.293574 31.055763 53.490888
2003-04-15 07:18:07 51°14.12 2°41.37 11.554941 3.292942 31.049894 53.423469
2003-04-15 07:18:11 51°14.12 2°41.37 11.498119 3.292942 31.049161 53.524597
2003-04-15 07:18:17 51°14.12 2°41.37 12.263659 3.293995 31.060165 53.389759
2003-04-15 07:18:21 51°14.12 2°41.38 9.882376 3.292837 31.048061 52.951537
2003-04-15 07:18:27 51°14.12 2°41.38 9.882376 3.292837 31.048061 52.951537
2003-04-15 07:18:33 51°14.12 2°41.38 12.559099 3.292731 31.045495 52.479606
2003-04-15 07:18:37 51°14.12 2°41.38 10.686614 3.292626 31.04586 52.951537
2003-04-15 07:18:43 51°14.11 2°41.38 12.707633 3.292942 31.051361 52.951537
2003-04-15 07:18:47 51°14.11 2°41.38 12.965966 3.29231 31.044758 53.254922
2003-04-15 07:18:51 51°14.11 2°41.39 10.381904 3.293047 31.053194 53.254922
2003-04-15 07:18:57 51°14.11 2°41.39 10.381904 3.293047 31.053194 53.254922
2003-04-15 07:19:03 51°14.11 2°41.39 11.179195 3.292837 31.049527 52.985247
2003-04-15 07:19:07 51°14.11 2°41.39 11.820939 3.291784 31.040723 52.985247
2003-04-15 07:19:11 51°14.11 2°41.39 10.652817 3.292837 31.05026 53.086375
2003-04-15 07:19:17 51°14.1 2°41.39 10.269805 3.292837 31.049527 52.951537
2003-04-15 07:19:23 51°14.1 2°41.39 10.653374 3.292942 31.050627 52.715571
2003-04-15 07:19:27 51°14.1 2°41.39 10.653374 3.292942 31.050627 52.715571
2003-04-15 07:19:31 51°14.1 2°41.39 9.8859 3.292415 31.045126 52.041383
2003-04-15 07:19:37 51°14.1 2°41.39 11.857881 3.293047 31.053194 51.569452
2003-04-15 07:19:41 51°14.1 2°41.39 11.93266 3.292205 31.042925 51.367195
2003-04-15 07:19:47 51°14.1 2°41.39 11.561582 3.291994 31.039992 51.872836
2003-04-15 07:19:53 51°14.1 2°41.39 11.730367 3.292099 31.041825 52.108802
2003-04-15 07:19:57 51°14.09 2°41.39 11.730367 3.292099 31.041825 52.108802
2003-04-15 07:20:01 51°14.09 2°41.39 9.787911 3.29231 31.041827 52.277349
2003-04-15 07:20:07 51°14.09 2°41.39 9.407017 3.293153 31.050629 52.547024
2003-04-15 07:20:13 51°14.09 2°41.39 11.621964 3.292099 31.040359 51.400905
2003-04-15 07:20:17 51°14.09 2°41.39 12.403178 3.292837 31.047328 50.322204
2003-04-15 07:20:23 51°14.09 2°41.39 11.955109 3.293047 31.046597 49.816563
2003-04-15 07:20:27 51°14.09 2°41.39 11.955109 3.293047 31.046597 49.816563
2003-04-15 07:20:31 51°14.09 2°41.39 12.287718 3.293468 31.048066 48.603024
2003-04-15 07:20:37 51°14.09 2°41.39 11.387544 3.293468 31.044402 48.636734
2003-04-15 07:20:41 51°14.08 2°41.39 9.39968 3.294206 31.046241 48.973828
2003-04-15 07:20:47 51°14.08 2°41.39 11.157955 3.294206 31.045508 48.940118
2003-04-15 07:20:51 51°14.08 2°41.39 11.569826 3.294627 31.046977 49.580597
2003-04-15 07:20:57 51°14.08 2°41.39 11.569826 3.294627 31.046977 49.580597
2003-04-15 07:21:03 51°14.08 2°41.39 9.396698 3.294311 31.04441 50.55817
2003-04-15 07:21:07 51°14.08 2°41.39 9.586911 3.294311 31.048073 50.52446
2003-04-15 07:21:11 51°14.08 2°41.39 9.712909 3.294311 31.048806 50.726717
2003-04-15 07:21:17 51°14.08 2°41.38 10.696638 3.294416 31.049905 51.299777
2003-04-15 07:21:21 51°14.08 2°41.38 9.508747 3.293258 31.037075 51.805418
2003-04-15 07:21:27 51°14.08 2°41.38 9.508747 3.293258 31.037075 51.805418
2003-04-15 07:21:33 51°14.07 2°41.38 11.716158 3.292942 31.038903 52.041383
2003-04-15 07:21:37 51°14.07 2°41.38 11.756035 3.2941 31.051735 52.176221
2003-04-15 07:21:41 51°14.07 2°41.38 9.509598 3.293995 31.050635 52.344768
2003-04-15 07:21:47 51°14.07 2°41.38 12.323541 3.293784 31.048435 52.78299
2003-04-15 07:21:51 51°14.07 2°41.38 11.192046 3.274301 30.844302 52.78299
2003-04-15 07:21:57 51°14.07 2°41.37 11.192046 3.274301 30.844302 52.78299
2003-04-15 07:22:03 51°14.07 2°41.37 11.303226 3.292837 31.041466 52.580734
2003-04-15 07:22:07 51°14.07 2°41.37 12.126345 3.293679 31.050999 52.378477
2003-04-15 07:22:13 51°14.07 2°41.37 12.087826 3.293784 31.050633 51.805418
2003-04-15 07:22:17 51°14.07 2°41.37 11.45226 3.280725 30.914267 51.636871
2003-04-15 07:22:21 51°14.07 2°41.37 11.189006 3.293679 31.048068 52.412187
2003-04-15 07:22:27 51°14.06 2°41.36 11.189006 3.293679 31.048068 52.412187
2003-04-15 07:22:31 51°14.06 2°41.36 11.489959 3.293995 31.052833 52.142512
2003-04-15 07:22:37 51°14.06 2°41.36 11.360491 3.293679 31.0488 52.075093
2003-04-15 07:22:43 51°14.06 2°41.36 11.902366 3.293152 31.042568 52.142512
2003-04-15 07:22:47 51°14.06 2°41.36 10.430613 3.293995 31.052833 53.524597
2003-04-15 07:22:53 51°14.06 2°41.35 11.75156 3.293047 31.045131 52.681862
2003-04-15 07:22:57 51°14.06 2°41.35 11.75156 3.293047 31.045131 52.681862
2003-04-15 07:23:01 51°14.06 2°41.35 11.529515 3.293679 31.0488 52.142512
2003-04-15 07:23:07 51°14.06 2°41.35 12.04983 3.292837 31.040733 52.142512
2003-04-15 07:23:13 51°14.06 2°41.34 12.04983 3.292099 31.03523 51.872836
2003-04-15 07:23:17 51°14.06 2°41.34 12.014086 3.292731 31.041831 51.603161
2003-04-15 07:23:23 51°14.06 2°41.34 11.678222 3.291889 31.031565 51.839127
2003-04-15 07:23:27 51°14.05 2°41.34 11.678222 3.291889 31.031565 51.839127
2003-04-15 07:23:31 51°14.05 2°41.34 10.964315 3.295469 31.067502 51.603161
2003-04-15 07:23:37 51°14.05 2°41.33 11.04159 3.292837 31.039268 51.906546
2003-04-15 07:23:43 51°14.05 2°41.33 11.15413 3.293047 31.042933 51.973965
2003-04-15 07:23:47 51°14.05 2°41.33 12.165613 3.291994 31.032665 51.502033
2003-04-15 07:23:53 51°14.05 2°41.32 11.942405 3.292942 31.043298 51.569452
2003-04-15 07:23:57 51°14.05 2°41.32 11.942405 3.292942 31.043298 51.569452
2003-04-15 07:24:03 51°14.05 2°41.32 9.857844 3.293574 31.049166 50.827845
2003-04-15 07:24:07 51°14.05 2°41.32 11.379829 3.293047 31.0422 51.67058
2003-04-15 07:24:11 51°14.05 2°41.31 10.584519 3.293363 31.047699 51.636871
2003-04-15 07:24:17 51°14.05 2°41.31 9.89539 3.293047 31.044398 51.906546
2003-04-15 07:24:23 51°14.04 2°41.31 10.849227 3.292415 31.036333 51.737999
2003-04-15 07:24:27 51°14.04 2°41.31 10.849227 3.292415 31.036333 51.737999
2003-04-15 07:24:33 51°14.04 2°41.3 11.831887 3.294206 31.0565 51.636871
2003-04-15 07:24:37 51°14.04 2°41.3 11.978324 3.293784 31.051366 51.636871
2003-04-15 07:24:41 51°14.04 2°41.3 10.204848 3.292626 31.038533 52.007674
2003-04-15 07:24:47 51°14.04 2°41.3 11.78959 3.293574 31.0477 52.311059
2003-04-15 07:24:53 51°14.04 2°41.29 12.570241 3.293152 31.044033 53.120084
2003-04-15 07:24:57 51°14.04 2°41.29 12.570241 3.293152 31.044033 53.120084
2003-04-15 07:25:03 51°14.04 2°41.29 11.862987 3.293152 31.041835 52.277349
2003-04-15 07:25:07 51°14.04 2°41.28 12.271635 3.2941 31.0554 52.176221
2003-04-15 07:25:11 51°14.03 2°41.28 10.846727 3.293679 31.0488 52.24364
2003-04-15 07:25:17 51°14.03 2°41.28 13.303301 3.292099 31.033033 52.78299
2003-04-15 07:25:23 51°14.03 2°41.28 11.378818 3.29389 31.048069 53.322341
2003-04-15 07:25:27 51°14.03 2°41.27 11.378818 3.29389 31.048069 53.322341
2003-04-15 07:25:33 51°14.03 2°41.27 10.924742 3.293574 31.049899 53.827982
2003-04-15 07:25:37 51°14.03 2°41.27 9.995094 3.29389 31.052466 53.524597
2003-04-15 07:25:43 51°14.03 2°41.27 11.076895 3.293468 31.048799 53.389759
2003-04-15 07:25:47 51°14.03 2°41.26 11.301065 3.293679 31.053198 53.389759
2003-04-15 07:25:51 51°14.03 2°41.26 10.581823 3.293363 31.047699 53.457178
2003-04-15 07:25:57 51°14.03 2°41.26 10.581823 3.293363 31.047699 53.457178
2003-04-15 07:26:01 51°14.03 2°41.26 11.415641 3.293679 31.051732 53.726853
2003-04-15 07:26:07 51°14.03 2°41.25 11.719539 3.293258 31.047331 53.592016
2003-04-15 07:26:13 51°14.03 2°41.25 11.760008 3.293258 31.04953 54.097657
2003-04-15 07:26:17 51°14.03 2°41.25 9.242426 3.293574 31.049899 54.299913
2003-04-15 07:26:21 51°14.03 2°41.25 10.935655 3.293047 31.04733 53.558306
2003-04-15 07:26:27 51°14.03 2°41.25 10.935655 3.293047 31.04733 53.558306
2003-04-15 07:26:33 51°14.03 2°41.24 11.257138 3.293363 31.048432 53.153794
2003-04-15 07:26:37 51°14.03 2°41.24 9.523159 3.293258 31.045866 52.24364
2003-04-15 07:26:43 51°14.03 2°41.24 11.730367 3.294522 31.057601 51.636871
2003-04-15 07:26:47 51°14.03 2°41.24 10.05937 3.293468 31.045868 51.603161
2003-04-15 07:26:53 51°14.03 2°41.24 11.797988 3.293468 31.044402 51.535742
2003-04-15 07:26:57 51°14.03 2°41.23 11.797988 3.293468 31.044402 51.535742
2003-04-15 07:27:01 51°14.03 2°41.23 11.047683 3.293784 31.045504 51.603161
2003-04-15 07:27:07 51°14.03 2°41.23 10.59112 3.293995 31.046239 51.704289
2003-04-15 07:27:11 51°14.03 2°41.23 11.50197 3.2941 31.045873 51.872836
2003-04-15 07:27:17 51°14.03 2°41.23 10.89648 3.294943 31.053207 52.142512
2003-04-15 07:27:23 51°14.03 2°41.22 9.943947 3.294521 31.04954 51.502033
2003-04-15 07:27:27 51°14.03 2°41.22 9.943947 3.294521 31.04954 51.502033
2003-04-15 07:27:31 51°14.03 2°41.22 10.019903 3.294416 31.050638 52.142512
2003-04-15 07:27:37 51°14.03 2°41.22 11.349832 3.294206 31.044043 52.412187
2003-04-15 07:27:41 51°14.03 2°41.22 11.277242 3.28557 30.956808 51.771708
2003-04-15 07:27:47 51°14.04 2°41.22 10.254063 3.294416 31.050638 51.299777
2003-04-15 07:27:53 51°14.04 2°41.22 9.984868 3.294311 31.048073 50.827845
2003-04-15 07:27:57 51°14.04 2°41.21 9.984868 3.294311 31.048073 50.827845
2003-04-15 07:28:01 51°14.04 2°41.21 11.499953 3.294311 31.049538 50.928973
2003-04-15 07:28:07 51°14.04 2°41.21 10.592933 3.29389 31.045139 50.288494
2003-04-15 07:28:11 51°14.04 2°41.21 10.857329 3.294206 31.047706 48.805281
2003-04-15 07:28:17 51°14.04 2°41.21 9.785793 3.295048 31.055772 48.973828
2003-04-15 07:28:21 51°14.04 2°41.21 11.683845 3.294837 31.052839 49.546888
2003-04-15 07:28:27 51°14.04 2°41.21 11.683845 3.294837 31.052839 49.546888
2003-04-15 07:28:33 51°14.04 2°41.21 11.681834 3.294627 31.049907 49.142375
2003-04-15 07:28:37 51°14.04 2°41.21 12.167882 3.29389 31.043674 49.917691
2003-04-15 07:28:41 51°14.04 2°41.2 10.013572 3.294521 31.050273 49.715435
2003-04-15 07:28:47 51°14.04 2°41.2 11.943452 3.294416 31.049905 50.221076
2003-04-15 07:28:51 51°14.04 2°41.2 10.509543 3.293995 31.048437 50.457042
2003-04-15 07:28:57 51°14.04 2°41.2 10.509543 3.293995 31.048437 50.457042
2003-04-15 07:29:03 51°14.04 2°41.2 10.738111 3.291783 31.024607 50.153657
2003-04-15 07:29:07 51°14.05 2°41.2 10.356533 3.293995 31.049169 50.996392
2003-04-15 07:29:13 51°14.05 2°41.2 10.278633 3.293784 31.048435 51.266067
2003-04-15 07:29:17 51°14.05 2°41.2 9.586911 3.293679 31.0488 51.400905
2003-04-15 07:29:21 51°14.05 2°41.2 11.528003 3.293679 31.048068 51.164939
2003-04-15 07:29:27 51°14.05 2°41.2 11.528003 3.293679 31.048068 51.164939
2003-04-15 07:29:31 51°14.05 2°41.2 12.089143 3.293995 31.052833 50.895264
2003-04-15 07:29:37 51°14.05 2°41.2 10.774831 3.293468 31.044402 50.423332
2003-04-15 07:29:43 51°14.05 2°41.2 11.226856 3.293047 31.042933 49.9514
2003-04-15 07:29:47 51°14.05 2°41.2 12.274308 3.293574 31.0477 50.861554
2003-04-15 07:29:51 51°14.05 2°41.2 11.450241 3.29389 31.052466 51.030101
2003-04-15 07:29:57 51°14.05 2°41.2 11.450241 3.29389 31.052466 51.030101
2003-04-15 07:30:01 51°14.05 2°41.19 11.413254 3.293679 31.051732 50.423332
2003-04-15 07:30:07 51°14.05 2°41.19 10.426886 3.293679 31.050266 49.850272
2003-04-15 07:30:13 51°14.06 2°41.19 11.562727 3.293784 31.0499 50.895264
2003-04-15 07:30:17 51°14.06 2°41.19 11.334622 3.293679 31.050266 50.895264
2003-04-15 07:30:23 51°14.06 2°41.19 11.82062 3.293679 31.050999 51.09752
2003-04-15 07:30:27 51°14.06 2°41.19 11.82062 3.293679 31.050999 51.09752
2003-04-15 07:30:31 51°14.06 2°41.19 11.669489 3.294416 31.059433 51.333486
2003-04-15 07:30:37 51°14.06 2°41.19 10.953777 3.293679 31.051732 51.872836
2003-04-15 07:30:43 51°14.06 2°41.19 11.258841 3.293574 31.049899 52.24364
2003-04-15 07:30:47 51°14.06 2°41.19 10.842051 3.293574 31.053564 52.513315
2003-04-15 07:30:53 51°14.06 2°41.19 10.538111 3.293363 31.049164 52.580734
2003-04-15 07:30:57 51°14.06 2°41.19 10.538111 3.293363 31.049164 52.580734
2003-04-15 07:31:01 51°14.06 2°41.19 11.823722 3.292837 31.048061 52.884118
2003-04-15 07:31:07 51°14.07 2°41.19 10.691626 3.293153 31.051362 53.288631
2003-04-15 07:31:11 51°14.07 2°41.19 10.807453 3.292626 31.04586 53.288631
2003-04-15 07:31:17 51°14.07 2°41.19 11.032865 3.293363 31.052829 53.389759
2003-04-15 07:31:23 51°14.07 2°41.19 10.195543 3.293258 31.04953 53.322341
2003-04-15 07:31:27 51°14.07 2°41.19 10.195543 3.293258 31.04953 53.322341
2003-04-15 07:31:33 51°14.07 2°41.19 10.806805 3.293469 31.053197 53.389759
2003-04-15 07:31:37 51°14.07 2°41.19 11.843289 3.293784 31.056497 53.760563
2003-04-15 07:31:41 51°14.07 2°41.19 11.786304 3.293679 31.054664 54.603298
2003-04-15 07:31:47 51°14.07 2°41.19 11.670267 3.29389 31.055398 55.142648
2003-04-15 07:31:53 51°14.07 2°41.19 11.407103 3.294206 31.058699 54.940392
2003-04-15 07:31:57 51°14.08 2°41.19 11.407103 3.294206 31.058699 54.940392
2003-04-15 07:32:03 51°14.08 2°41.19 11.449874 3.29389 31.056131 55.749418
2003-04-15 07:32:07 51°14.08 2°41.19 10.922152 3.293679 31.053931 56.457315
2003-04-15 07:32:11 51°14.08 2°41.19 10.506564 3.293679 31.054664 56.592153
2003-04-15 07:32:17 51°14.08 2°41.19 11.111766 3.293784 31.057231 56.592153
2003-04-15 07:32:23 51°14.08 2°41.19 11.223633 3.2941 31.059798 57.367469
2003-04-15 07:32:27 51°14.08 2°41.19 11.223633 3.2941 31.059798 57.367469
2003-04-15 07:32:33 51°14.08 2°41.19 11.076018 3.293469 31.05393 57.030375
2003-04-15 07:32:37 51°14.09 2°41.19 10.961958 3.294206 31.060899 57.771982
2003-04-15 07:32:41 51°14.09 2°41.19 11.230078 3.294206 31.060165 58.311332
2003-04-15 07:32:47 51°14.09 2°41.19 10.585263 3.294206 31.058699 58.142785
2003-04-15 07:32:51 51°14.09 2°41.19 10.812642 3.294522 31.063466 57.805691
2003-04-15 07:32:57 51°14.09 2°41.19 10.812642 3.294522 31.063466 57.805691
2003-04-15 07:33:01 51°14.09 2°41.19 11.977914 3.294627 31.0631 57.434888
2003-04-15 07:33:07 51°14.09 2°41.19 9.702638 3.294522 31.062 57.097794
2003-04-15 07:33:13 51°14.09 2°41.19 10.086356 3.295048 31.066034 55.850546
2003-04-15 07:33:17 51°14.09 2°41.19 11.187256 3.295048 31.066034 56.625862
2003-04-15 07:33:21 51°14.09 2°41.19 9.544133 3.294943 31.063468 56.221349
2003-04-15 07:33:27 51°14.1 2°41.19 9.544133 3.294943 31.063468 56.221349
2003-04-15 07:33:33 51°14.1 2°41.19 10.353688 3.295154 31.066401 56.322477
2003-04-15 07:33:37 51°14.1 2°41.19 11.192737 3.295153 31.065668 56.423606
2003-04-15 07:33:43 51°14.1 2°41.19 11.2304 3.295575 31.067869 57.434888
2003-04-15 07:33:47 51°14.1 2°41.19 11.604254 3.294943 31.064934 57.502306
2003-04-15 07:33:51 51°14.1 2°41.19 11.901501 3.294838 31.066034 58.075366
2003-04-15 07:33:57 51°14.1 2°41.19 11.901501 3.294838 31.066034 58.075366
2003-04-15 07:34:03 51°14.1 2°41.19 11.48895 3.295469 31.072636 57.502306
2003-04-15 07:34:07 51°14.1 2°41.19 9.586486 3.295785 31.075203 56.356187
2003-04-15 07:34:11 51°14.1 2°41.2 9.624708 3.295154 31.066401 56.659571
2003-04-15 07:34:17 51°14.1 2°41.2 11.304605 3.295364 31.067868 58.614717
2003-04-15 07:34:23 51°14.1 2°41.2 11.150812 3.295891 31.072636 59.390033
2003-04-15 07:34:27 51°14.1 2°41.2 11.150812 3.295891 31.072636 59.390033
2003-04-15 07:34:31 51°14.1 2°41.2 11.900179 3.295364 31.069335 59.086648
2003-04-15 07:34:37 51°14.1 2°41.2 10.350422 3.295469 31.068969 60.468734
2003-04-15 07:34:41 51°14.1 2°41.2 10.081437 3.295048 31.065301 60.435024
2003-04-15 07:34:47 51°14.1 2°41.2 11.413116 3.295469 31.068235 60.637281
2003-04-15 07:34:53 51°14.1 2°41.21 12.08778 3.295785 31.072269 61.648563
2003-04-15 07:34:57 51°14.1 2°41.21 12.08778 3.295785 31.072269 61.648563
2003-04-15 07:35:01 51°14.1 2°41.21 9.580491 3.29568 31.070436 62.626136
2003-04-15 07:35:07 51°14.1 2°41.21 10.996797 3.295575 31.069335 62.727264
2003-04-15 07:35:13 51°14.1 2°41.21 11.670998 3.29568 31.071169 63.266614
2003-04-15 07:35:17 51°14.1 2°41.21 11.336828 3.295996 31.073003 63.671127
2003-04-15 07:35:23 51°14.1 2°41.21 11.56117 3.295575 31.070802 64.547571
2003-04-15 07:35:27 51°14.1 2°41.22 11.56117 3.295575 31.070802 64.547571
2003-04-15 07:35:33 51°14.1 2°41.22 11.710263 3.294943 31.063468 64.176768
2003-04-15 07:35:37 51°14.1 2°41.22 11.295455 3.295259 31.065302 64.918375
2003-04-15 07:35:41 51°14.1 2°41.22 10.728604 3.295364 31.070068 65.019503
2003-04-15 07:35:47 51°14.1 2°41.22 10.5034 3.294732 31.064934 64.716118
2003-04-15 07:35:51 51°14.09 2°41.22 10.958029 3.295469 31.073369 65.592563
2003-04-15 07:35:57 51°14.09 2°41.22 10.958029 3.295469 31.073369 65.592563
2003-04-15 07:36:03 51°14.09 2°41.23 11.262383 3.295364 31.070802 65.120631
2003-04-15 07:36:07 51°14.09 2°41.23 10.330779 3.294627 31.0631 65.322888
2003-04-15 07:36:11 51°14.09 2°41.23 11.713827 3.294943 31.067134 65.390306
2003-04-15 07:36:17 51°14.09 2°41.23 9.967742 3.294838 31.066767 65.828529
2003-04-15 07:36:21 51°14.08 2°41.23 11.597205 3.295364 31.070802 65.120631
2003-04-15 07:36:27 51°14.08 2°41.23 11.597205 3.295364 31.070802 65.120631
2003-04-15 07:36:33 51°14.08 2°41.23 11.782881 3.295469 31.072636 63.907093
2003-04-15 07:36:37 51°14.08 2°41.23 11.18311 3.295785 31.072269 63.671127
2003-04-15 07:36:43 51°14.08 2°41.23 11.443956 3.295469 31.071169 64.109349
2003-04-15 07:36:47 51°14.07 2°41.23 10.537739 3.295364 31.070802 64.783537
2003-04-15 07:36:51 51°14.07 2°41.23 10.002552 3.295785 31.075203 65.963366
2003-04-15 07:36:57 51°14.07 2°41.24 10.002552 3.295785 31.075203 65.963366
2003-04-15 07:37:03 51°14.07 2°41.24 10.767322 3.295469 31.069702 66.637554
2003-04-15 07:37:07 51°14.06 2°41.24 10.424463 3.295259 31.068968 66.502717
2003-04-15 07:37:13 51°14.06 2°41.24 12.072784 3.294522 31.0598 66.165623
2003-04-15 07:37:17 51°14.06 2°41.24 12.011584 3.295891 31.076303 65.963366
2003-04-15 07:37:21 51°14.06 2°41.24 12.011584 3.295891 31.076303 65.963366
2003-04-15 07:37:27 51°14.05 2°41.23 12.309911 3.294732 31.065667 65.862238
2003-04-15 07:37:31 51°14.05 2°41.23 11.148969 3.294838 31.066034 65.154341
2003-04-15 07:37:37 51°14.05 2°41.23 12.233925 3.295048 31.069701 65.18805
2003-04-15 07:37:43 51°14.04 2°41.23 11.971906 3.295364 31.071535 65.019503
2003-04-15 07:37:47 51°14.04 2°41.23 10.991393 3.295259 31.071902 64.884665
2003-04-15 07:37:53 51°14.04 2°41.23 13.002815 3.294311 31.062732 63.873383
2003-04-15 07:37:57 51°14.03 2°41.23 13.002815 3.294311 31.062732 63.873383
2003-04-15 07:38:01 51°14.03 2°41.23 11.555949 3.293784 31.055764 63.300324
2003-04-15 07:38:07 51°14.03 2°41.23 10.578523 3.295154 31.070802 63.266614
2003-04-15 07:38:13 51°14.02 2°41.22 10.082702 3.295048 31.068234 63.637418
2003-04-15 07:38:17 51°14.02 2°41.22 11.111074 3.294416 31.064566 64.04193
2003-04-15 07:38:23 51°14.02 2°41.22 10.004146 3.295364 31.07447 63.907093
2003-04-15 07:38:27 51°14.01 2°41.22 10.004146 3.295364 31.07447 63.907093
2003-04-15 07:38:31 51°14.01 2°41.22 10.271347 3.294943 31.072269 63.300324
2003-04-15 07:38:37 51°14.01 2°41.21 11.221838 3.294627 31.068234 62.255332
2003-04-15 07:38:43 51°14 2°41.21 11.521679 3.294838 31.068967 60.536153
2003-04-15 07:38:47 51°14 2°41.21 10.995365 3.295154 31.071535 60.064221
2003-04-15 07:38:53 51°14 2°41.2 10.576617 3.294838 31.068234 60.839537
2003-04-15 07:38:57 51°13.99 2°41.2 10.576617 3.294838 31.068234 60.839537
2003-04-15 07:39:03 51°13.99 2°41.2 9.928407 3.294943 31.070068 60.333896
2003-04-15 07:39:07 51°13.99 2°41.2 10.654953 3.294838 31.069701 60.165349
2003-04-15 07:39:11 51°13.99 2°41.19 11.561124 3.294416 31.066033 59.895674
2003-04-15 07:39:17 51°13.98 2°41.19 10.272561 3.294732 31.070801 59.154067
2003-04-15 07:39:23 51°13.98 2°41.18 11.634592 3.294206 31.064565 57.637144
2003-04-15 07:39:27 51°13.97 2°41.18 11.634592 3.294206 31.064565 57.637144
2003-04-15 07:39:33 51°13.97 2°41.18 11.222621 3.293995 31.062365 56.457315
2003-04-15 07:39:37 51°13.97 2°41.17 11.487895 3.294311 31.064932 55.715708
2003-04-15 07:39:41 51°13.97 2°41.17 11.863534 3.2941 31.061265 54.974101
2003-04-15 07:39:47 51°13.96 2°41.17 11.756127 3.293995 31.058698 54.771845
2003-04-15 07:39:53 51°13.96 2°41.16 11.379369 3.29389 31.058331 54.940392
2003-04-15 07:39:57 51°13.95 2°41.16 11.379369 3.29389 31.058331 54.940392
2003-04-15 07:40:03 51°13.95 2°41.16 11.4161 3.293679 31.057597 54.030238
2003-04-15 07:40:07 51°13.95 2°41.15 11.753569 3.293258 31.051729 53.288631
2003-04-15 07:40:13 51°13.94 2°41.15 11.490784 3.2941 31.059798 53.120084
2003-04-15 07:40:17 51°13.94 2°41.14 11.564009 3.292626 31.042929 52.108802
2003-04-15 07:40:21 51°13.94 2°41.14 11.713919 3.29389 31.056131 52.24364